<?xml version="1.0" encoding="UTF-8" standalone="no" ?><gpx xmlns="http://www.topografix.com/GPX/1/1" xmlns:gpxx="http://www.garmin.com/xmlschemas/GpxExtensions/v3" xmlns:wptx1="http://www.garmin.com/xmlschemas/WaypointExtension/v1" xmlns:gpxtpx="http://www.garmin.com/xmlschemas/TrackPointExtension/v1" creator="GuideVTT.com" version="1.1" xmlns:xsi="http://www.w3.org/2001/XMLSchema-instance" xsi:schemaLocation="http://www.topografix.com/GPX/1/1 http://www.topografix.com/GPX/1/1/gpx.xsd http://www.garmin.com/xmlschemas/GpxExtensions/v3 http://www8.garmin.com/xmlschemas/GpxExtensionsv3.xsd http://www.garmin.com/xmlschemas/WaypointExtension/v1 http://www8.garmin.com/xmlschemas/WaypointExtensionv1.xsd http://www.garmin.com/xmlschemas/TrackPointExtension/v1 http://www.garmin.com/xmlschemas/TrackPointExtensionv1.xsd">
<metadata><link href="http://www.garmin.com"><text>Garmin International</text></link><time>2013-06-22T15:13:50Z</time></metadata>
<trk><name>maggia-freeride060809.gpx</name><extensions><gpxx:TrackExtension><gpxx:DisplayColor>Cyan</gpxx:DisplayColor></gpxx:TrackExtension></extensions><trkseg>
<trkpt lat="46.24565887" lon="8.71053123"><ele></ele><time>2014-6-4T21:34:3Z</time></trkpt>
<trkpt lat="46.24563599" lon="8.71057892"><ele></ele><time>2014-6-4T21:34:6Z</time></trkpt>
<trkpt lat="46.24547958" lon="8.71085262"><ele></ele><time>2014-6-4T21:34:9Z</time></trkpt>
<trkpt lat="46.24519730" lon="8.71126747"><ele></ele><time>2014-6-4T21:34:12Z</time></trkpt>
<trkpt lat="46.24489212" lon="8.71167660"><ele></ele><time>2014-6-4T21:34:15Z</time></trkpt>
<trkpt lat="46.24431992" lon="8.71240997"><ele></ele><time>2014-6-4T21:34:18Z</time></trkpt>
<trkpt lat="46.24401855" lon="8.71279812"><ele></ele><time>2014-6-4T21:34:21Z</time></trkpt>
<trkpt lat="46.24355698" lon="8.71312237"><ele></ele><time>2014-6-4T21:34:24Z</time></trkpt>
<trkpt lat="46.24306488" lon="8.71339130"><ele></ele><time>2014-6-4T21:34:27Z</time></trkpt>
<trkpt lat="46.24265289" lon="8.71364212"><ele></ele><time>2014-6-4T21:34:30Z</time></trkpt>
<trkpt lat="46.24225235" lon="8.71382236"><ele></ele><time>2014-6-4T21:34:33Z</time></trkpt>
<trkpt lat="46.24205017" lon="8.71387577"><ele></ele><time>2014-6-4T21:34:36Z</time></trkpt>
<trkpt lat="46.24179077" lon="8.71394539"><ele></ele><time>2014-6-4T21:34:39Z</time></trkpt>
<trkpt lat="46.24121475" lon="8.71386242"><ele></ele><time>2014-6-4T21:34:42Z</time></trkpt>
<trkpt lat="46.24104691" lon="8.71387196"><ele></ele><time>2014-6-4T21:34:45Z</time></trkpt>
<trkpt lat="46.24089813" lon="8.71393394"><ele></ele><time>2014-6-4T21:34:48Z</time></trkpt>
<trkpt lat="46.24069977" lon="8.71405792"><ele></ele><time>2014-6-4T21:34:51Z</time></trkpt>
<trkpt lat="46.24035645" lon="8.71429539"><ele></ele><time>2014-6-4T21:34:54Z</time></trkpt>
<trkpt lat="46.24022293" lon="8.71440029"><ele></ele><time>2014-6-4T21:34:57Z</time></trkpt>
<trkpt lat="46.23992157" lon="8.71442795"><ele></ele><time>2014-6-4T21:35:0Z</time></trkpt>
<trkpt lat="46.23966217" lon="8.71451473"><ele></ele><time>2014-6-4T21:35:3Z</time></trkpt>
<trkpt lat="46.23933792" lon="8.71473598"><ele></ele><time>2014-6-4T21:35:6Z</time></trkpt>
<trkpt lat="46.23902130" lon="8.71505642"><ele></ele><time>2014-6-4T21:35:9Z</time></trkpt>
<trkpt lat="46.23857498" lon="8.71574020"><ele></ele><time>2014-6-4T21:35:12Z</time></trkpt>
<trkpt lat="46.23850250" lon="8.71585941"><ele></ele><time>2014-6-4T21:35:15Z</time></trkpt>
<trkpt lat="46.23822784" lon="8.71605778"><ele></ele><time>2014-6-4T21:35:18Z</time></trkpt>
<trkpt lat="46.23772812" lon="8.71620655"><ele></ele><time>2014-6-4T21:35:21Z</time></trkpt>
<trkpt lat="46.23727036" lon="8.71636677"><ele></ele><time>2014-6-4T21:35:24Z</time></trkpt>
<trkpt lat="46.23696136" lon="8.71648788"><ele></ele><time>2014-6-4T21:35:27Z</time></trkpt>
<trkpt lat="46.23679352" lon="8.71667767"><ele></ele><time>2014-6-4T21:35:30Z</time></trkpt>
<trkpt lat="46.23671722" lon="8.71679878"><ele></ele><time>2014-6-4T21:35:33Z</time></trkpt>
<trkpt lat="46.23657990" lon="8.71698666"><ele></ele><time>2014-6-4T21:35:36Z</time></trkpt>
<trkpt lat="46.23650360" lon="8.71721172"><ele></ele><time>2014-6-4T21:35:39Z</time></trkpt>
<trkpt lat="46.23638153" lon="8.71738720"><ele></ele><time>2014-6-4T21:35:42Z</time></trkpt>
<trkpt lat="46.23612213" lon="8.71755886"><ele></ele><time>2014-6-4T21:35:45Z</time></trkpt>
<trkpt lat="46.23595810" lon="8.71776581"><ele></ele><time>2014-6-4T21:35:48Z</time></trkpt>
<trkpt lat="46.23574829" lon="8.71790504"><ele></ele><time>2014-6-4T21:35:51Z</time></trkpt>
<trkpt lat="46.23562241" lon="8.71802330"><ele></ele><time>2014-6-4T21:35:54Z</time></trkpt>
<trkpt lat="46.23532867" lon="8.71841240"><ele></ele><time>2014-6-4T21:35:57Z</time></trkpt>
<trkpt lat="46.23525238" lon="8.71853065"><ele></ele><time>2014-6-4T21:36:0Z</time></trkpt>
<trkpt lat="46.23505020" lon="8.71868992"><ele></ele><time>2014-6-4T21:36:3Z</time></trkpt>
<trkpt lat="46.23488998" lon="8.71877670"><ele></ele><time>2014-6-4T21:36:6Z</time></trkpt>
<trkpt lat="46.23464203" lon="8.71886826"><ele></ele><time>2014-6-4T21:36:9Z</time></trkpt>
<trkpt lat="46.23449326" lon="8.71887207"><ele></ele><time>2014-6-4T21:36:12Z</time></trkpt>
<trkpt lat="46.23435974" lon="8.71884537"><ele></ele><time>2014-6-4T21:36:15Z</time></trkpt>
<trkpt lat="46.23417664" lon="8.71886253"><ele></ele><time>2014-6-4T21:36:18Z</time></trkpt>
<trkpt lat="46.23395157" lon="8.71892357"><ele></ele><time>2014-6-4T21:36:21Z</time></trkpt>
<trkpt lat="46.23380280" lon="8.71897030"><ele></ele><time>2014-6-4T21:36:24Z</time></trkpt>
<trkpt lat="46.23376846" lon="8.71899605"><ele></ele><time>2014-6-4T21:36:27Z</time></trkpt>
<trkpt lat="46.23363495" lon="8.71916962"><ele></ele><time>2014-6-4T21:36:30Z</time></trkpt>
<trkpt lat="46.23352051" lon="8.71930218"><ele></ele><time>2014-6-4T21:36:33Z</time></trkpt>
<trkpt lat="46.23346329" lon="8.71941185"><ele></ele><time>2014-6-4T21:36:36Z</time></trkpt>
<trkpt lat="46.23336411" lon="8.71959019"><ele></ele><time>2014-6-4T21:36:39Z</time></trkpt>
<trkpt lat="46.23322678" lon="8.71993065"><ele></ele><time>2014-6-4T21:36:42Z</time></trkpt>
<trkpt lat="46.23320007" lon="8.72000694"><ele></ele><time>2014-6-4T21:36:45Z</time></trkpt>
<trkpt lat="46.23310471" lon="8.72030354"><ele></ele><time>2014-6-4T21:36:48Z</time></trkpt>
<trkpt lat="46.23312378" lon="8.72060108"><ele></ele><time>2014-6-4T21:36:51Z</time></trkpt>
<trkpt lat="46.23305893" lon="8.72084332"><ele></ele><time>2014-6-4T21:36:54Z</time></trkpt>
<trkpt lat="46.23293686" lon="8.72096634"><ele></ele><time>2014-6-4T21:36:57Z</time></trkpt>
<trkpt lat="46.23289490" lon="8.72101974"><ele></ele><time>2014-6-4T21:37:0Z</time></trkpt>
<trkpt lat="46.23281097" lon="8.72111893"><ele></ele><time>2014-6-4T21:37:3Z</time></trkpt>
<trkpt lat="46.23265457" lon="8.72118282"><ele></ele><time>2014-6-4T21:37:6Z</time></trkpt>
<trkpt lat="46.23245239" lon="8.72116470"><ele></ele><time>2014-6-4T21:37:9Z</time></trkpt>
<trkpt lat="46.23241425" lon="8.72117901"><ele></ele><time>2014-6-4T21:37:12Z</time></trkpt>
<trkpt lat="46.23225784" lon="8.72144699"><ele></ele><time>2014-6-4T21:37:15Z</time></trkpt>
<trkpt lat="46.23220444" lon="8.72173786"><ele></ele><time>2014-6-4T21:37:18Z</time></trkpt>
<trkpt lat="46.23230362" lon="8.72198200"><ele></ele><time>2014-6-4T21:37:21Z</time></trkpt>
<trkpt lat="46.23235321" lon="8.72205639"><ele></ele><time>2014-6-4T21:37:24Z</time></trkpt>
<trkpt lat="46.23232269" lon="8.72213936"><ele></ele><time>2014-6-4T21:37:27Z</time></trkpt>
<trkpt lat="46.23229980" lon="8.72213173"><ele></ele><time>2014-6-4T21:37:30Z</time></trkpt>
<trkpt lat="46.23227692" lon="8.72209740"><ele></ele><time>2014-6-4T21:37:33Z</time></trkpt>
<trkpt lat="46.23217010" lon="8.72205162"><ele></ele><time>2014-6-4T21:37:36Z</time></trkpt>
<trkpt lat="46.23202896" lon="8.72192764"><ele></ele><time>2014-6-4T21:37:39Z</time></trkpt>
<trkpt lat="46.23192978" lon="8.72183228"><ele></ele><time>2014-6-4T21:37:42Z</time></trkpt>
<trkpt lat="46.23186493" lon="8.72177029"><ele></ele><time>2014-6-4T21:37:45Z</time></trkpt>
<trkpt lat="46.23186493" lon="8.72177029"><ele></ele><time>2014-6-4T21:37:48Z</time></trkpt>
<trkpt lat="46.23178864" lon="8.72164536"><ele></ele><time>2014-6-4T21:37:51Z</time></trkpt>
<trkpt lat="46.23156357" lon="8.72145271"><ele></ele><time>2014-6-4T21:37:54Z</time></trkpt>
<trkpt lat="46.23134232" lon="8.72125816"><ele></ele><time>2014-6-4T21:37:57Z</time></trkpt>
<trkpt lat="46.23122025" lon="8.72114086"><ele></ele><time>2014-6-4T21:38:0Z</time></trkpt>
<trkpt lat="46.23118591" lon="8.72110939"><ele></ele><time>2014-6-4T21:38:3Z</time></trkpt>
<trkpt lat="46.23109055" lon="8.72090340"><ele></ele><time>2014-6-4T21:38:6Z</time></trkpt>
<trkpt lat="46.23109436" lon="8.72082615"><ele></ele><time>2014-6-4T21:38:9Z</time></trkpt>
<trkpt lat="46.23108292" lon="8.72031689"><ele></ele><time>2014-6-4T21:38:12Z</time></trkpt>
<trkpt lat="46.23107529" lon="8.72014713"><ele></ele><time>2014-6-4T21:38:15Z</time></trkpt>
<trkpt lat="46.23110962" lon="8.71943665"><ele></ele><time>2014-6-4T21:38:18Z</time></trkpt>
<trkpt lat="46.23112869" lon="8.71882153"><ele></ele><time>2014-6-4T21:38:21Z</time></trkpt>
<trkpt lat="46.23116302" lon="8.71821976"><ele></ele><time>2014-6-4T21:38:24Z</time></trkpt>
<trkpt lat="46.23113632" lon="8.71809483"><ele></ele><time>2014-6-4T21:38:27Z</time></trkpt>
<trkpt lat="46.23115921" lon="8.71817303"><ele></ele><time>2014-6-4T21:38:30Z</time></trkpt>
<trkpt lat="46.23123932" lon="8.71815109"><ele></ele><time>2014-6-4T21:38:33Z</time></trkpt>
<trkpt lat="46.23149490" lon="8.71797943"><ele></ele><time>2014-6-4T21:38:36Z</time></trkpt>
<trkpt lat="46.23170853" lon="8.71785927"><ele></ele><time>2014-6-4T21:38:39Z</time></trkpt>
<trkpt lat="46.23207474" lon="8.71752834"><ele></ele><time>2014-6-4T21:38:42Z</time></trkpt>
<trkpt lat="46.23216248" lon="8.71728325"><ele></ele><time>2014-6-4T21:38:45Z</time></trkpt>
<trkpt lat="46.23215485" lon="8.71713448"><ele></ele><time>2014-6-4T21:38:48Z</time></trkpt>
<trkpt lat="46.23225784" lon="8.71679020"><ele></ele><time>2014-6-4T21:38:51Z</time></trkpt>
<trkpt lat="46.23230362" lon="8.71674538"><ele></ele><time>2014-6-4T21:38:54Z</time></trkpt>
<trkpt lat="46.23271942" lon="8.71646309"><ele></ele><time>2014-6-4T21:38:57Z</time></trkpt>
<trkpt lat="46.23305130" lon="8.71617889"><ele></ele><time>2014-6-4T21:39:0Z</time></trkpt>
<trkpt lat="46.23328018" lon="8.71597481"><ele></ele><time>2014-6-4T21:39:3Z</time></trkpt>
<trkpt lat="46.23352432" lon="8.71588326"><ele></ele><time>2014-6-4T21:39:6Z</time></trkpt>
<trkpt lat="46.23357773" lon="8.71587467"><ele></ele><time>2014-6-4T21:39:9Z</time></trkpt>
<trkpt lat="46.23384476" lon="8.71576214"><ele></ele><time>2014-6-4T21:39:12Z</time></trkpt>
<trkpt lat="46.23393631" lon="8.71568203"><ele></ele><time>2014-6-4T21:39:15Z</time></trkpt>
<trkpt lat="46.23408127" lon="8.71559525"><ele></ele><time>2014-6-4T21:39:18Z</time></trkpt>
<trkpt lat="46.23421860" lon="8.71548939"><ele></ele><time>2014-6-4T21:39:21Z</time></trkpt>
<trkpt lat="46.23436356" lon="8.71533394"><ele></ele><time>2014-6-4T21:39:24Z</time></trkpt>
<trkpt lat="46.23462677" lon="8.71516991"><ele></ele><time>2014-6-4T21:39:27Z</time></trkpt>
<trkpt lat="46.23474884" lon="8.71497345"><ele></ele><time>2014-6-4T21:39:30Z</time></trkpt>
<trkpt lat="46.23485184" lon="8.71472359"><ele></ele><time>2014-6-4T21:39:33Z</time></trkpt>
<trkpt lat="46.23491287" lon="8.71452141"><ele></ele><time>2014-6-4T21:39:36Z</time></trkpt>
<trkpt lat="46.23491669" lon="8.71430016"><ele></ele><time>2014-6-4T21:39:39Z</time></trkpt>
<trkpt lat="46.23496246" lon="8.71405125"><ele></ele><time>2014-6-4T21:39:42Z</time></trkpt>
<trkpt lat="46.23506165" lon="8.71386814"><ele></ele><time>2014-6-4T21:39:45Z</time></trkpt>
<trkpt lat="46.23511124" lon="8.71370316"><ele></ele><time>2014-6-4T21:39:48Z</time></trkpt>
<trkpt lat="46.23511124" lon="8.71366978"><ele></ele><time>2014-6-4T21:39:51Z</time></trkpt>
<trkpt lat="46.23504257" lon="8.71351337"><ele></ele><time>2014-6-4T21:39:54Z</time></trkpt>
<trkpt lat="46.23495102" lon="8.71337128"><ele></ele><time>2014-6-4T21:39:57Z</time></trkpt>
<trkpt lat="46.23487091" lon="8.71329403"><ele></ele><time>2014-6-4T21:40:0Z</time></trkpt>
<trkpt lat="46.23476791" lon="8.71314907"><ele></ele><time>2014-6-4T21:40:3Z</time></trkpt>
<trkpt lat="46.23469162" lon="8.71304607"><ele></ele><time>2014-6-4T21:40:6Z</time></trkpt>
<trkpt lat="46.23463440" lon="8.71295261"><ele></ele><time>2014-6-4T21:40:9Z</time></trkpt>
<trkpt lat="46.23457336" lon="8.71286392"><ele></ele><time>2014-6-4T21:40:12Z</time></trkpt>
<trkpt lat="46.23455429" lon="8.71283245"><ele></ele><time>2014-6-4T21:40:15Z</time></trkpt>
<trkpt lat="46.23446274" lon="8.71273708"><ele></ele><time>2014-6-4T21:40:18Z</time></trkpt>
<trkpt lat="46.23436737" lon="8.71265221"><ele></ele><time>2014-6-4T21:40:21Z</time></trkpt>
<trkpt lat="46.23429871" lon="8.71251106"><ele></ele><time>2014-6-4T21:40:24Z</time></trkpt>
<trkpt lat="46.23427582" lon="8.71223640"><ele></ele><time>2014-6-4T21:40:27Z</time></trkpt>
<trkpt lat="46.23422623" lon="8.71189785"><ele></ele><time>2014-6-4T21:40:30Z</time></trkpt>
<trkpt lat="46.23420334" lon="8.71168709"><ele></ele><time>2014-6-4T21:40:33Z</time></trkpt>
<trkpt lat="46.23430634" lon="8.71162128"><ele></ele><time>2014-6-4T21:40:36Z</time></trkpt>
<trkpt lat="46.23453522" lon="8.71158504"><ele></ele><time>2014-6-4T21:40:39Z</time></trkpt>
<trkpt lat="46.23497009" lon="8.71134472"><ele></ele><time>2014-6-4T21:40:42Z</time></trkpt>
<trkpt lat="46.23520660" lon="8.71117210"><ele></ele><time>2014-6-4T21:40:45Z</time></trkpt>
<trkpt lat="46.23529053" lon="8.71110439"><ele></ele><time>2014-6-4T21:40:48Z</time></trkpt>
<trkpt lat="46.23564911" lon="8.71081638"><ele></ele><time>2014-6-4T21:40:51Z</time></trkpt>
<trkpt lat="46.23596191" lon="8.71042633"><ele></ele><time>2014-6-4T21:40:54Z</time></trkpt>
<trkpt lat="46.23630905" lon="8.70997143"><ele></ele><time>2014-6-4T21:40:57Z</time></trkpt>
<trkpt lat="46.23671341" lon="8.70943642"><ele></ele><time>2014-6-4T21:41:0Z</time></trkpt>
<trkpt lat="46.23710251" lon="8.70894909"><ele></ele><time>2014-6-4T21:41:3Z</time></trkpt>
<trkpt lat="46.23770523" lon="8.70837307"><ele></ele><time>2014-6-4T21:41:6Z</time></trkpt>
<trkpt lat="46.23810196" lon="8.70800018"><ele></ele><time>2014-6-4T21:41:9Z</time></trkpt>
<trkpt lat="46.23851013" lon="8.70763874"><ele></ele><time>2014-6-4T21:41:12Z</time></trkpt>
<trkpt lat="46.23872375" lon="8.70748997"><ele></ele><time>2014-6-4T21:41:15Z</time></trkpt>
<trkpt lat="46.23925781" lon="8.70722485"><ele></ele><time>2014-6-4T21:41:18Z</time></trkpt>
<trkpt lat="46.23963928" lon="8.70701790"><ele></ele><time>2014-6-4T21:41:21Z</time></trkpt>
<trkpt lat="46.23979568" lon="8.70716858"><ele></ele><time>2014-6-4T21:41:24Z</time></trkpt>
<trkpt lat="46.24016953" lon="8.70794582"><ele></ele><time>2014-6-4T21:41:27Z</time></trkpt>
<trkpt lat="46.24024200" lon="8.70811176"><ele></ele><time>2014-6-4T21:41:30Z</time></trkpt>
<trkpt lat="46.24039459" lon="8.70821667"><ele></ele><time>2014-6-4T21:41:33Z</time></trkpt>
<trkpt lat="46.24045181" lon="8.70818615"><ele></ele><time>2014-6-4T21:41:36Z</time></trkpt>
<trkpt lat="46.24085236" lon="8.70786858"><ele></ele><time>2014-6-4T21:41:39Z</time></trkpt>
<trkpt lat="46.24102020" lon="8.70770168"><ele></ele><time>2014-6-4T21:41:42Z</time></trkpt>
<trkpt lat="46.24104691" lon="8.70766163"><ele></ele><time>2014-6-4T21:41:45Z</time></trkpt>
<trkpt lat="46.24110031" lon="8.70757484"><ele></ele><time>2014-6-4T21:41:48Z</time></trkpt>
<trkpt lat="46.24132156" lon="8.70709991"><ele></ele><time>2014-6-4T21:41:51Z</time></trkpt>
<trkpt lat="46.24158859" lon="8.70654392"><ele></ele><time>2014-6-4T21:41:54Z</time></trkpt>
<trkpt lat="46.24171829" lon="8.70632839"><ele></ele><time>2014-6-4T21:41:57Z</time></trkpt>
<trkpt lat="46.24186325" lon="8.70614910"><ele></ele><time>2014-6-4T21:42:0Z</time></trkpt>
<trkpt lat="46.24198151" lon="8.70604610"><ele></ele><time>2014-6-4T21:42:3Z</time></trkpt>
<trkpt lat="46.24243927" lon="8.70582771"><ele></ele><time>2014-6-4T21:42:6Z</time></trkpt>
<trkpt lat="46.24256134" lon="8.70576477"><ele></ele><time>2014-6-4T21:42:9Z</time></trkpt>
<trkpt lat="46.24271011" lon="8.70552158"><ele></ele><time>2014-6-4T21:42:12Z</time></trkpt>
<trkpt lat="46.24281693" lon="8.70503330"><ele></ele><time>2014-6-4T21:42:15Z</time></trkpt>
<trkpt lat="46.24286652" lon="8.70480537"><ele></ele><time>2014-6-4T21:42:18Z</time></trkpt>
<trkpt lat="46.24293137" lon="8.70457172"><ele></ele><time>2014-6-4T21:42:21Z</time></trkpt>
<trkpt lat="46.24298477" lon="8.70431709"><ele></ele><time>2014-6-4T21:42:24Z</time></trkpt>
<trkpt lat="46.24303436" lon="8.70401955"><ele></ele><time>2014-6-4T21:42:27Z</time></trkpt>
<trkpt lat="46.24307251" lon="8.70388889"><ele></ele><time>2014-6-4T21:42:30Z</time></trkpt>
<trkpt lat="46.24308395" lon="8.70383358"><ele></ele><time>2014-6-4T21:42:33Z</time></trkpt>
<trkpt lat="46.24310303" lon="8.70380688"><ele></ele><time>2014-6-4T21:42:36Z</time></trkpt>
<trkpt lat="46.24316788" lon="8.70355988"><ele></ele><time>2014-6-4T21:42:39Z</time></trkpt>
<trkpt lat="46.24320221" lon="8.70340633"><ele></ele><time>2014-6-4T21:42:42Z</time></trkpt>
<trkpt lat="46.24323273" lon="8.70323753"><ele></ele><time>2014-6-4T21:42:45Z</time></trkpt>
<trkpt lat="46.24325943" lon="8.70309830"><ele></ele><time>2014-6-4T21:42:48Z</time></trkpt>
<trkpt lat="46.24327850" lon="8.70301247"><ele></ele><time>2014-6-4T21:42:51Z</time></trkpt>
<trkpt lat="46.24332809" lon="8.70281410"><ele></ele><time>2014-6-4T21:42:54Z</time></trkpt>
<trkpt lat="46.24344254" lon="8.70257759"><ele></ele><time>2014-6-4T21:42:57Z</time></trkpt>
<trkpt lat="46.24354935" lon="8.70238113"><ele></ele><time>2014-6-4T21:43:0Z</time></trkpt>
<trkpt lat="46.24369431" lon="8.70218658"><ele></ele><time>2014-6-4T21:43:3Z</time></trkpt>
<trkpt lat="46.24379730" lon="8.70199680"><ele></ele><time>2014-6-4T21:43:6Z</time></trkpt>
<trkpt lat="46.24391174" lon="8.70182514"><ele></ele><time>2014-6-4T21:43:9Z</time></trkpt>
<trkpt lat="46.24406433" lon="8.70159435"><ele></ele><time>2014-6-4T21:43:12Z</time></trkpt>
<trkpt lat="46.24420929" lon="8.70136547"><ele></ele><time>2014-6-4T21:43:15Z</time></trkpt>
<trkpt lat="46.24434662" lon="8.70119190"><ele></ele><time>2014-6-4T21:43:18Z</time></trkpt>
<trkpt lat="46.24449158" lon="8.70094013"><ele></ele><time>2014-6-4T21:43:21Z</time></trkpt>
<trkpt lat="46.24452972" lon="8.70073318"><ele></ele><time>2014-6-4T21:43:24Z</time></trkpt>
<trkpt lat="46.24452209" lon="8.70048237"><ele></ele><time>2014-6-4T21:43:27Z</time></trkpt>
<trkpt lat="46.24449539" lon="8.70029259"><ele></ele><time>2014-6-4T21:43:30Z</time></trkpt>
<trkpt lat="46.24446869" lon="8.70005608"><ele></ele><time>2014-6-4T21:43:33Z</time></trkpt>
<trkpt lat="46.24445724" lon="8.69976425"><ele></ele><time>2014-6-4T21:43:36Z</time></trkpt>
<trkpt lat="46.24445724" lon="8.69964695"><ele></ele><time>2014-6-4T21:43:39Z</time></trkpt>
<trkpt lat="46.24446487" lon="8.69939995"><ele></ele><time>2014-6-4T21:43:42Z</time></trkpt>
<trkpt lat="46.24447250" lon="8.69927502"><ele></ele><time>2014-6-4T21:43:45Z</time></trkpt>
<trkpt lat="46.24457169" lon="8.69905186"><ele></ele><time>2014-6-4T21:43:48Z</time></trkpt>
<trkpt lat="46.24460983" lon="8.69893074"><ele></ele><time>2014-6-4T21:43:51Z</time></trkpt>
<trkpt lat="46.24477768" lon="8.69856834"><ele></ele><time>2014-6-4T21:43:54Z</time></trkpt>
<trkpt lat="46.24492264" lon="8.69840431"><ele></ele><time>2014-6-4T21:43:57Z</time></trkpt>
<trkpt lat="46.24511337" lon="8.69816971"><ele></ele><time>2014-6-4T21:44:0Z</time></trkpt>
<trkpt lat="46.24531174" lon="8.69785500"><ele></ele><time>2014-6-4T21:44:3Z</time></trkpt>
<trkpt lat="46.24552155" lon="8.69751263"><ele></ele><time>2014-6-4T21:44:6Z</time></trkpt>
<trkpt lat="46.24565125" lon="8.69713783"><ele></ele><time>2014-6-4T21:44:9Z</time></trkpt>
<trkpt lat="46.24578476" lon="8.69671631"><ele></ele><time>2014-6-4T21:44:12Z</time></trkpt>
<trkpt lat="46.24594116" lon="8.69659519"><ele></ele><time>2014-6-4T21:44:15Z</time></trkpt>
<trkpt lat="46.24624634" lon="8.69648933"><ele></ele><time>2014-6-4T21:44:18Z</time></trkpt>
<trkpt lat="46.24662018" lon="8.69631386"><ele></ele><time>2014-6-4T21:44:21Z</time></trkpt>
<trkpt lat="46.24677658" lon="8.69621754"><ele></ele><time>2014-6-4T21:44:24Z</time></trkpt>
<trkpt lat="46.24689865" lon="8.69611931"><ele></ele><time>2014-6-4T21:44:27Z</time></trkpt>
<trkpt lat="46.24707031" lon="8.69577789"><ele></ele><time>2014-6-4T21:44:30Z</time></trkpt>
<trkpt lat="46.24717331" lon="8.69557762"><ele></ele><time>2014-6-4T21:44:33Z</time></trkpt>
<trkpt lat="46.24742126" lon="8.69505787"><ele></ele><time>2014-6-4T21:44:36Z</time></trkpt>
<trkpt lat="46.24756241" lon="8.69475269"><ele></ele><time>2014-6-4T21:44:39Z</time></trkpt>
<trkpt lat="46.24762344" lon="8.69445515"><ele></ele><time>2014-6-4T21:44:42Z</time></trkpt>
<trkpt lat="46.24766541" lon="8.69415474"><ele></ele><time>2014-6-4T21:44:45Z</time></trkpt>
<trkpt lat="46.24779892" lon="8.69384384"><ele></ele><time>2014-6-4T21:44:48Z</time></trkpt>
<trkpt lat="46.24801254" lon="8.69354534"><ele></ele><time>2014-6-4T21:44:51Z</time></trkpt>
<trkpt lat="46.24805450" lon="8.69348907"><ele></ele><time>2014-6-4T21:44:54Z</time></trkpt>
<trkpt lat="46.24820709" lon="8.69300365"><ele></ele><time>2014-6-4T21:44:57Z</time></trkpt>
<trkpt lat="46.24840164" lon="8.69233227"><ele></ele><time>2014-6-4T21:45:0Z</time></trkpt>
<trkpt lat="46.24869919" lon="8.69191074"><ele></ele><time>2014-6-4T21:45:3Z</time></trkpt>
<trkpt lat="46.24897385" lon="8.69157219"><ele></ele><time>2014-6-4T21:45:6Z</time></trkpt>
<trkpt lat="46.24910736" lon="8.69118881"><ele></ele><time>2014-6-4T21:45:9Z</time></trkpt>
<trkpt lat="46.24912262" lon="8.69107819"><ele></ele><time>2014-6-4T21:45:12Z</time></trkpt>
<trkpt lat="46.24916077" lon="8.69062614"><ele></ele><time>2014-6-4T21:45:15Z</time></trkpt>
<trkpt lat="46.24929047" lon="8.69023609"><ele></ele><time>2014-6-4T21:45:18Z</time></trkpt>
<trkpt lat="46.24942780" lon="8.69009590"><ele></ele><time>2014-6-4T21:45:21Z</time></trkpt>
<trkpt lat="46.24959183" lon="8.68986320"><ele></ele><time>2014-6-4T21:45:24Z</time></trkpt>
<trkpt lat="46.24961853" lon="8.68944454"><ele></ele><time>2014-6-4T21:45:27Z</time></trkpt>
<trkpt lat="46.24960327" lon="8.68918419"><ele></ele><time>2014-6-4T21:45:30Z</time></trkpt>
<trkpt lat="46.24969101" lon="8.68881702"><ele></ele><time>2014-6-4T21:45:33Z</time></trkpt>
<trkpt lat="46.24988937" lon="8.68874454"><ele></ele><time>2014-6-4T21:45:36Z</time></trkpt>
<trkpt lat="46.25002670" lon="8.68880081"><ele></ele><time>2014-6-4T21:45:39Z</time></trkpt>
<trkpt lat="46.25031281" lon="8.68881321"><ele></ele><time>2014-6-4T21:45:42Z</time></trkpt>
<trkpt lat="46.25038528" lon="8.68875122"><ele></ele><time>2014-6-4T21:45:45Z</time></trkpt>
<trkpt lat="46.25061798" lon="8.68852520"><ele></ele><time>2014-6-4T21:45:48Z</time></trkpt>
<trkpt lat="46.25112152" lon="8.68828487"><ele></ele><time>2014-6-4T21:45:51Z</time></trkpt>
<trkpt lat="46.25164413" lon="8.68807125"><ele></ele><time>2014-6-4T21:45:54Z</time></trkpt>
<trkpt lat="46.25209045" lon="8.68766212"><ele></ele><time>2014-6-4T21:45:57Z</time></trkpt>
<trkpt lat="46.25246429" lon="8.68750000"><ele></ele><time>2014-6-4T21:46:0Z</time></trkpt>
<trkpt lat="46.25279236" lon="8.68729591"><ele></ele><time>2014-6-4T21:46:3Z</time></trkpt>
<trkpt lat="46.25302124" lon="8.68712521"><ele></ele><time>2014-6-4T21:46:6Z</time></trkpt>
<trkpt lat="46.25348282" lon="8.68695354"><ele></ele><time>2014-6-4T21:46:9Z</time></trkpt>
<trkpt lat="46.25389099" lon="8.68682766"><ele></ele><time>2014-6-4T21:46:12Z</time></trkpt>
<trkpt lat="46.25429916" lon="8.68662262"><ele></ele><time>2014-6-4T21:46:15Z</time></trkpt>
<trkpt lat="46.25439072" lon="8.68658733"><ele></ele><time>2014-6-4T21:46:18Z</time></trkpt>
<trkpt lat="46.25482178" lon="8.68653870"><ele></ele><time>2014-6-4T21:46:21Z</time></trkpt>
<trkpt lat="46.25524139" lon="8.68653774"><ele></ele><time>2014-6-4T21:46:24Z</time></trkpt>
<trkpt lat="46.25547409" lon="8.68648243"><ele></ele><time>2014-6-4T21:46:27Z</time></trkpt>
<trkpt lat="46.25581741" lon="8.68631554"><ele></ele><time>2014-6-4T21:46:30Z</time></trkpt>
<trkpt lat="46.25624847" lon="8.68594646"><ele></ele><time>2014-6-4T21:46:33Z</time></trkpt>
<trkpt lat="46.25640488" lon="8.68576336"><ele></ele><time>2014-6-4T21:46:36Z</time></trkpt>
<trkpt lat="46.25658035" lon="8.68561172"><ele></ele><time>2014-6-4T21:46:39Z</time></trkpt>
<trkpt lat="46.25683212" lon="8.68556595"><ele></ele><time>2014-6-4T21:46:42Z</time></trkpt>
<trkpt lat="46.25749969" lon="8.68571281"><ele></ele><time>2014-6-4T21:46:45Z</time></trkpt>
<trkpt lat="46.25788116" lon="8.68579388"><ele></ele><time>2014-6-4T21:46:48Z</time></trkpt>
<trkpt lat="46.25819016" lon="8.68586636"><ele></ele><time>2014-6-4T21:46:51Z</time></trkpt>
<trkpt lat="46.25827789" lon="8.68588257"><ele></ele><time>2014-6-4T21:46:54Z</time></trkpt>
<trkpt lat="46.25844574" lon="8.68579578"><ele></ele><time>2014-6-4T21:46:57Z</time></trkpt>
<trkpt lat="46.25855637" lon="8.68565845"><ele></ele><time>2014-6-4T21:47:0Z</time></trkpt>
<trkpt lat="46.25872040" lon="8.68556309"><ele></ele><time>2014-6-4T21:47:3Z</time></trkpt>
<trkpt lat="46.25876617" lon="8.68556976"><ele></ele><time>2014-6-4T21:47:6Z</time></trkpt>
<trkpt lat="46.25895309" lon="8.68561745"><ele></ele><time>2014-6-4T21:47:9Z</time></trkpt>
<trkpt lat="46.25935745" lon="8.68583775"><ele></ele><time>2014-6-4T21:47:12Z</time></trkpt>
<trkpt lat="46.25962830" lon="8.68602180"><ele></ele><time>2014-6-4T21:47:15Z</time></trkpt>
<trkpt lat="46.25968552" lon="8.68604660"><ele></ele><time>2014-6-4T21:47:18Z</time></trkpt>
<trkpt lat="46.26017380" lon="8.68618488"><ele></ele><time>2014-6-4T21:47:21Z</time></trkpt>
<trkpt lat="46.26026917" lon="8.68622684"><ele></ele><time>2014-6-4T21:47:24Z</time></trkpt>
<trkpt lat="46.26044083" lon="8.68637753"><ele></ele><time>2014-6-4T21:47:27Z</time></trkpt>
<trkpt lat="46.26075363" lon="8.68686962"><ele></ele><time>2014-6-4T21:47:30Z</time></trkpt>
<trkpt lat="46.26095200" lon="8.68722916"><ele></ele><time>2014-6-4T21:47:33Z</time></trkpt>
<trkpt lat="46.26113510" lon="8.68731499"><ele></ele><time>2014-6-4T21:47:36Z</time></trkpt>
<trkpt lat="46.26118469" lon="8.68729210"><ele></ele><time>2014-6-4T21:47:39Z</time></trkpt>
<trkpt lat="46.26158524" lon="8.68710041"><ele></ele><time>2014-6-4T21:47:42Z</time></trkpt>
<trkpt lat="46.26178741" lon="8.68700600"><ele></ele><time>2014-6-4T21:47:45Z</time></trkpt>
<trkpt lat="46.26194763" lon="8.68682480"><ele></ele><time>2014-6-4T21:47:48Z</time></trkpt>
<trkpt lat="46.26198196" lon="8.68647003"><ele></ele><time>2014-6-4T21:47:51Z</time></trkpt>
<trkpt lat="46.26197052" lon="8.68632984"><ele></ele><time>2014-6-4T21:47:54Z</time></trkpt>
<trkpt lat="46.26195908" lon="8.68618774"><ele></ele><time>2014-6-4T21:47:57Z</time></trkpt>
<trkpt lat="46.26186371" lon="8.68570423"><ele></ele><time>2014-6-4T21:48:0Z</time></trkpt>
<trkpt lat="46.26178741" lon="8.68525982"><ele></ele><time>2014-6-4T21:48:3Z</time></trkpt>
<trkpt lat="46.26174927" lon="8.68486786"><ele></ele><time>2014-6-4T21:48:6Z</time></trkpt>
<trkpt lat="46.26165009" lon="8.68452930"><ele></ele><time>2014-6-4T21:48:9Z</time></trkpt>
<trkpt lat="46.26157761" lon="8.68414974"><ele></ele><time>2014-6-4T21:48:12Z</time></trkpt>
<trkpt lat="46.26148987" lon="8.68366718"><ele></ele><time>2014-6-4T21:48:15Z</time></trkpt>
<trkpt lat="46.26149368" lon="8.68348503"><ele></ele><time>2014-6-4T21:48:18Z</time></trkpt>
<trkpt lat="46.26144791" lon="8.68340111"><ele></ele><time>2014-6-4T21:48:21Z</time></trkpt>
<trkpt lat="46.26143646" lon="8.68337154"><ele></ele><time>2014-6-4T21:48:24Z</time></trkpt>
<trkpt lat="46.26136780" lon="8.68309879"><ele></ele><time>2014-6-4T21:48:27Z</time></trkpt>
<trkpt lat="46.26134109" lon="8.68301105"><ele></ele><time>2014-6-4T21:48:30Z</time></trkpt>
<trkpt lat="46.26123047" lon="8.68279171"><ele></ele><time>2014-6-4T21:48:33Z</time></trkpt>
<trkpt lat="46.26115417" lon="8.68257523"><ele></ele><time>2014-6-4T21:48:36Z</time></trkpt>
<trkpt lat="46.26115036" lon="8.68228722"><ele></ele><time>2014-6-4T21:48:39Z</time></trkpt>
<trkpt lat="46.26121140" lon="8.68200874"><ele></ele><time>2014-6-4T21:48:42Z</time></trkpt>
<trkpt lat="46.26119995" lon="8.68176079"><ele></ele><time>2014-6-4T21:48:45Z</time></trkpt>
<trkpt lat="46.26111984" lon="8.68151665"><ele></ele><time>2014-6-4T21:48:48Z</time></trkpt>
<trkpt lat="46.26101685" lon="8.68120575"><ele></ele><time>2014-6-4T21:48:51Z</time></trkpt>
<trkpt lat="46.26096344" lon="8.68085384"><ele></ele><time>2014-6-4T21:48:54Z</time></trkpt>
<trkpt lat="46.26099777" lon="8.68051815"><ele></ele><time>2014-6-4T21:48:57Z</time></trkpt>
<trkpt lat="46.26101685" lon="8.68026161"><ele></ele><time>2014-6-4T21:49:0Z</time></trkpt>
<trkpt lat="46.26102066" lon="8.68001270"><ele></ele><time>2014-6-4T21:49:3Z</time></trkpt>
<trkpt lat="46.26109314" lon="8.67971230"><ele></ele><time>2014-6-4T21:49:6Z</time></trkpt>
<trkpt lat="46.26112366" lon="8.67959404"><ele></ele><time>2014-6-4T21:49:9Z</time></trkpt>
<trkpt lat="46.26124191" lon="8.67956448"><ele></ele><time>2014-6-4T21:49:12Z</time></trkpt>
<trkpt lat="46.26156616" lon="8.67958164"><ele></ele><time>2014-6-4T21:49:15Z</time></trkpt>
<trkpt lat="46.26178360" lon="8.67963600"><ele></ele><time>2014-6-4T21:49:18Z</time></trkpt>
<trkpt lat="46.26204681" lon="8.67968655"><ele></ele><time>2014-6-4T21:49:21Z</time></trkpt>
<trkpt lat="46.26237488" lon="8.67982388"><ele></ele><time>2014-6-4T21:49:24Z</time></trkpt>
<trkpt lat="46.26269531" lon="8.68004322"><ele></ele><time>2014-6-4T21:49:27Z</time></trkpt>
<trkpt lat="46.26287842" lon="8.68015862"><ele></ele><time>2014-6-4T21:49:30Z</time></trkpt>
<trkpt lat="46.26308441" lon="8.68018627"><ele></ele><time>2014-6-4T21:49:33Z</time></trkpt>
<trkpt lat="46.26327515" lon="8.68021107"><ele></ele><time>2014-6-4T21:49:36Z</time></trkpt>
<trkpt lat="46.26348495" lon="8.68026733"><ele></ele><time>2014-6-4T21:49:39Z</time></trkpt>
<trkpt lat="46.26372147" lon="8.68031406"><ele></ele><time>2014-6-4T21:49:42Z</time></trkpt>
<trkpt lat="46.26387405" lon="8.68026733"><ele></ele><time>2014-6-4T21:49:45Z</time></trkpt>
<trkpt lat="46.26404190" lon="8.68023014"><ele></ele><time>2014-6-4T21:49:48Z</time></trkpt>
<trkpt lat="46.26414871" lon="8.68017578"><ele></ele><time>2014-6-4T21:49:51Z</time></trkpt>
<trkpt lat="46.26416779" lon="8.68017197"><ele></ele><time>2014-6-4T21:49:54Z</time></trkpt>
<trkpt lat="46.26426697" lon="8.68013382"><ele></ele><time>2014-6-4T21:49:57Z</time></trkpt>
<trkpt lat="46.26426697" lon="8.68013477"><ele></ele><time>2014-6-4T21:50:0Z</time></trkpt>
<trkpt lat="46.26446152" lon="8.68019009"><ele></ele><time>2014-6-4T21:50:3Z</time></trkpt>
<trkpt lat="46.26454926" lon="8.68010998"><ele></ele><time>2014-6-4T21:50:6Z</time></trkpt>
<trkpt lat="46.26462936" lon="8.67998314"><ele></ele><time>2014-6-4T21:50:9Z</time></trkpt>
<trkpt lat="46.26468658" lon="8.67992592"><ele></ele><time>2014-6-4T21:50:12Z</time></trkpt>
<trkpt lat="46.26474380" lon="8.67987442"><ele></ele><time>2014-6-4T21:50:15Z</time></trkpt>
<trkpt lat="46.26485443" lon="8.67989254"><ele></ele><time>2014-6-4T21:50:18Z</time></trkpt>
<trkpt lat="46.26499176" lon="8.67997646"><ele></ele><time>2014-6-4T21:50:21Z</time></trkpt>
<trkpt lat="46.26510620" lon="8.68006420"><ele></ele><time>2014-6-4T21:50:24Z</time></trkpt>
<trkpt lat="46.26519012" lon="8.68013191"><ele></ele><time>2014-6-4T21:50:27Z</time></trkpt>
<trkpt lat="46.26516342" lon="8.68016148"><ele></ele><time>2014-6-4T21:50:30Z</time></trkpt>
<trkpt lat="46.26503754" lon="8.68003941"><ele></ele><time>2014-6-4T21:50:33Z</time></trkpt>
<trkpt lat="46.26501083" lon="8.68002224"><ele></ele><time>2014-6-4T21:50:36Z</time></trkpt>
<trkpt lat="46.26494598" lon="8.68005371"><ele></ele><time>2014-6-4T21:50:39Z</time></trkpt>
<trkpt lat="46.26484299" lon="8.67996407"><ele></ele><time>2014-6-4T21:50:42Z</time></trkpt>
<trkpt lat="46.26461411" lon="8.67994595"><ele></ele><time>2014-6-4T21:50:45Z</time></trkpt>
<trkpt lat="46.26442337" lon="8.68011475"><ele></ele><time>2014-6-4T21:50:48Z</time></trkpt>
<trkpt lat="46.26426697" lon="8.68017864"><ele></ele><time>2014-6-4T21:50:51Z</time></trkpt>
<trkpt lat="46.26381683" lon="8.68030262"><ele></ele><time>2014-6-4T21:50:54Z</time></trkpt>
<trkpt lat="46.26372147" lon="8.68032265"><ele></ele><time>2014-6-4T21:50:57Z</time></trkpt>
<trkpt lat="46.26322937" lon="8.68023586"><ele></ele><time>2014-6-4T21:51:0Z</time></trkpt>
<trkpt lat="46.26294327" lon="8.68020439"><ele></ele><time>2014-6-4T21:51:3Z</time></trkpt>
<trkpt lat="46.26259232" lon="8.68001366"><ele></ele><time>2014-6-4T21:51:6Z</time></trkpt>
<trkpt lat="46.26240921" lon="8.67988968"><ele></ele><time>2014-6-4T21:51:9Z</time></trkpt>
<trkpt lat="46.26239395" lon="8.67993546"><ele></ele><time>2014-6-4T21:51:12Z</time></trkpt>
<trkpt lat="46.26258850" lon="8.68016720"><ele></ele><time>2014-6-4T21:51:15Z</time></trkpt>
<trkpt lat="46.26282883" lon="8.68059540"><ele></ele><time>2014-6-4T21:51:18Z</time></trkpt>
<trkpt lat="46.26321030" lon="8.68099213"><ele></ele><time>2014-6-4T21:51:21Z</time></trkpt>
<trkpt lat="46.26345444" lon="8.68128872"><ele></ele><time>2014-6-4T21:51:24Z</time></trkpt>
<trkpt lat="46.26374817" lon="8.68152237"><ele></ele><time>2014-6-4T21:51:27Z</time></trkpt>
<trkpt lat="46.26387787" lon="8.68153858"><ele></ele><time>2014-6-4T21:51:30Z</time></trkpt>
<trkpt lat="46.26419449" lon="8.68153095"><ele></ele><time>2014-6-4T21:51:33Z</time></trkpt>
<trkpt lat="46.26454544" lon="8.68151188"><ele></ele><time>2014-6-4T21:51:36Z</time></trkpt>
<trkpt lat="46.26481628" lon="8.68157959"><ele></ele><time>2014-6-4T21:51:39Z</time></trkpt>
<trkpt lat="46.26501846" lon="8.68160439"><ele></ele><time>2014-6-4T21:51:42Z</time></trkpt>
<trkpt lat="46.26522064" lon="8.68146515"><ele></ele><time>2014-6-4T21:51:45Z</time></trkpt>
<trkpt lat="46.26533890" lon="8.68148708"><ele></ele><time>2014-6-4T21:51:48Z</time></trkpt>
<trkpt lat="46.26536560" lon="8.68151474"><ele></ele><time>2014-6-4T21:51:51Z</time></trkpt>
<trkpt lat="46.26556015" lon="8.68148041"><ele></ele><time>2014-6-4T21:51:54Z</time></trkpt>
<trkpt lat="46.26557159" lon="8.68147373"><ele></ele><time>2014-6-4T21:51:57Z</time></trkpt>
<trkpt lat="46.26556015" lon="8.68148708"><ele></ele><time>2014-6-4T21:52:0Z</time></trkpt>
<trkpt lat="46.26555634" lon="8.68154907"><ele></ele><time>2014-6-4T21:52:3Z</time></trkpt>
<trkpt lat="46.26567459" lon="8.68142128"><ele></ele><time>2014-6-4T21:52:6Z</time></trkpt>
<trkpt lat="46.26572037" lon="8.68140507"><ele></ele><time>2014-6-4T21:52:9Z</time></trkpt>
<trkpt lat="46.26583862" lon="8.68138313"><ele></ele><time>2014-6-4T21:52:12Z</time></trkpt>
<trkpt lat="46.26605988" lon="8.68129921"><ele></ele><time>2014-6-4T21:52:15Z</time></trkpt>
<trkpt lat="46.26607895" lon="8.68128681"><ele></ele><time>2014-6-4T21:52:18Z</time></trkpt>
<trkpt lat="46.26609802" lon="8.68129539"><ele></ele><time>2014-6-4T21:52:21Z</time></trkpt>
<trkpt lat="46.26610184" lon="8.68130493"><ele></ele><time>2014-6-4T21:52:24Z</time></trkpt>
<trkpt lat="46.26612854" lon="8.68132496"><ele></ele><time>2014-6-4T21:52:27Z</time></trkpt>
<trkpt lat="46.26613998" lon="8.68134689"><ele></ele><time>2014-6-4T21:52:30Z</time></trkpt>
<trkpt lat="46.26614380" lon="8.68136501"><ele></ele><time>2014-6-4T21:52:33Z</time></trkpt>
<trkpt lat="46.26618576" lon="8.68141460"><ele></ele><time>2014-6-4T21:52:36Z</time></trkpt>
<trkpt lat="46.26622009" lon="8.68145943"><ele></ele><time>2014-6-4T21:52:39Z</time></trkpt>
<trkpt lat="46.26622772" lon="8.68146992"><ele></ele><time>2014-6-4T21:52:42Z</time></trkpt>
<trkpt lat="46.26631927" lon="8.68142986"><ele></ele><time>2014-6-4T21:52:45Z</time></trkpt>
<trkpt lat="46.26634979" lon="8.68141079"><ele></ele><time>2014-6-4T21:52:48Z</time></trkpt>
<trkpt lat="46.26658630" lon="8.68123913"><ele></ele><time>2014-6-4T21:52:51Z</time></trkpt>
<trkpt lat="46.26678085" lon="8.68107128"><ele></ele><time>2014-6-4T21:52:54Z</time></trkpt>
<trkpt lat="46.26702499" lon="8.68085766"><ele></ele><time>2014-6-4T21:52:57Z</time></trkpt>
<trkpt lat="46.26720047" lon="8.68073845"><ele></ele><time>2014-6-4T21:53:0Z</time></trkpt>
<trkpt lat="46.26735306" lon="8.68064117"><ele></ele><time>2014-6-4T21:53:3Z</time></trkpt>
<trkpt lat="46.26746750" lon="8.68054008"><ele></ele><time>2014-6-4T21:53:6Z</time></trkpt>
<trkpt lat="46.26756668" lon="8.68048000"><ele></ele><time>2014-6-4T21:53:9Z</time></trkpt>
<trkpt lat="46.26766968" lon="8.68041801"><ele></ele><time>2014-6-4T21:53:12Z</time></trkpt>
<trkpt lat="46.26768875" lon="8.68040657"><ele></ele><time>2014-6-4T21:53:15Z</time></trkpt>
<trkpt lat="46.26774597" lon="8.68040943"><ele></ele><time>2014-6-4T21:53:18Z</time></trkpt>
<trkpt lat="46.26774216" lon="8.68035698"><ele></ele><time>2014-6-4T21:53:21Z</time></trkpt>
<trkpt lat="46.26778412" lon="8.68030930"><ele></ele><time>2014-6-4T21:53:24Z</time></trkpt>
<trkpt lat="46.26786041" lon="8.68024540"><ele></ele><time>2014-6-4T21:53:27Z</time></trkpt>
<trkpt lat="46.26791000" lon="8.68021297"><ele></ele><time>2014-6-4T21:53:30Z</time></trkpt>
<trkpt lat="46.26792908" lon="8.68017578"><ele></ele><time>2014-6-4T21:53:33Z</time></trkpt>
<trkpt lat="46.26802826" lon="8.68009663"><ele></ele><time>2014-6-4T21:53:36Z</time></trkpt>
<trkpt lat="46.26809692" lon="8.68000317"><ele></ele><time>2014-6-4T21:53:39Z</time></trkpt>
<trkpt lat="46.26817322" lon="8.67990971"><ele></ele><time>2014-6-4T21:53:42Z</time></trkpt>
<trkpt lat="46.26820374" lon="8.67988014"><ele></ele><time>2014-6-4T21:53:45Z</time></trkpt>
<trkpt lat="46.26827621" lon="8.67983055"><ele></ele><time>2014-6-4T21:53:48Z</time></trkpt>
<trkpt lat="46.26828766" lon="8.67982006"><ele></ele><time>2014-6-4T21:53:51Z</time></trkpt>
<trkpt lat="46.26831818" lon="8.67974567"><ele></ele><time>2014-6-4T21:53:54Z</time></trkpt>
<trkpt lat="46.26832581" lon="8.67972755"><ele></ele><time>2014-6-4T21:53:57Z</time></trkpt>
<trkpt lat="46.26834106" lon="8.67969990"><ele></ele><time>2014-6-4T21:54:0Z</time></trkpt>
<trkpt lat="46.26843262" lon="8.67959404"><ele></ele><time>2014-6-4T21:54:3Z</time></trkpt>
<trkpt lat="46.26853561" lon="8.67951202"><ele></ele><time>2014-6-4T21:54:6Z</time></trkpt>
<trkpt lat="46.26862717" lon="8.67945004"><ele></ele><time>2014-6-4T21:54:9Z</time></trkpt>
<trkpt lat="46.26868439" lon="8.67940617"><ele></ele><time>2014-6-4T21:54:12Z</time></trkpt>
<trkpt lat="46.26875687" lon="8.67934895"><ele></ele><time>2014-6-4T21:54:15Z</time></trkpt>
<trkpt lat="46.26879120" lon="8.67926502"><ele></ele><time>2014-6-4T21:54:18Z</time></trkpt>
<trkpt lat="46.26878738" lon="8.67927361"><ele></ele><time>2014-6-4T21:54:21Z</time></trkpt>
<trkpt lat="46.26888275" lon="8.67917442"><ele></ele><time>2014-6-4T21:54:24Z</time></trkpt>
<trkpt lat="46.26892090" lon="8.67913914"><ele></ele><time>2014-6-4T21:54:27Z</time></trkpt>
<trkpt lat="46.26893234" lon="8.67912579"><ele></ele><time>2014-6-4T21:54:30Z</time></trkpt>
<trkpt lat="46.26901627" lon="8.67905998"><ele></ele><time>2014-6-4T21:54:33Z</time></trkpt>
<trkpt lat="46.26903152" lon="8.67903137"><ele></ele><time>2014-6-4T21:54:36Z</time></trkpt>
<trkpt lat="46.26903915" lon="8.67901325"><ele></ele><time>2014-6-4T21:54:39Z</time></trkpt>
<trkpt lat="46.26906967" lon="8.67898560"><ele></ele><time>2014-6-4T21:54:42Z</time></trkpt>
<trkpt lat="46.26915741" lon="8.67895031"><ele></ele><time>2014-6-4T21:54:45Z</time></trkpt>
<trkpt lat="46.26920319" lon="8.67887211"><ele></ele><time>2014-6-4T21:54:48Z</time></trkpt>
<trkpt lat="46.26928329" lon="8.67879868"><ele></ele><time>2014-6-4T21:54:51Z</time></trkpt>
<trkpt lat="46.26930237" lon="8.67878914"><ele></ele><time>2014-6-4T21:54:54Z</time></trkpt>
<trkpt lat="46.26932144" lon="8.67875671"><ele></ele><time>2014-6-4T21:54:57Z</time></trkpt>
<trkpt lat="46.26946259" lon="8.67870712"><ele></ele><time>2014-6-4T21:55:0Z</time></trkpt>
<trkpt lat="46.26954651" lon="8.67864990"><ele></ele><time>2014-6-4T21:55:3Z</time></trkpt>
<trkpt lat="46.26956558" lon="8.67861652"><ele></ele><time>2014-6-4T21:55:6Z</time></trkpt>
<trkpt lat="46.26958847" lon="8.67854881"><ele></ele><time>2014-6-4T21:55:9Z</time></trkpt>
<trkpt lat="46.26960754" lon="8.67847919"><ele></ele><time>2014-6-4T21:55:12Z</time></trkpt>
<trkpt lat="46.26965332" lon="8.67837715"><ele></ele><time>2014-6-4T21:55:15Z</time></trkpt>
<trkpt lat="46.26972198" lon="8.67832661"><ele></ele><time>2014-6-4T21:55:18Z</time></trkpt>
<trkpt lat="46.26981354" lon="8.67825890"><ele></ele><time>2014-6-4T21:55:21Z</time></trkpt>
<trkpt lat="46.26983643" lon="8.67818260"><ele></ele><time>2014-6-4T21:55:24Z</time></trkpt>
<trkpt lat="46.26987839" lon="8.67810059"><ele></ele><time>2014-6-4T21:55:27Z</time></trkpt>
<trkpt lat="46.26989746" lon="8.67797184"><ele></ele><time>2014-6-4T21:55:30Z</time></trkpt>
<trkpt lat="46.26996994" lon="8.67790604"><ele></ele><time>2014-6-4T21:55:33Z</time></trkpt>
<trkpt lat="46.27000046" lon="8.67788601"><ele></ele><time>2014-6-4T21:55:36Z</time></trkpt>
<trkpt lat="46.27004623" lon="8.67784023"><ele></ele><time>2014-6-4T21:55:39Z</time></trkpt>
<trkpt lat="46.27011490" lon="8.67777157"><ele></ele><time>2014-6-4T21:55:42Z</time></trkpt>
<trkpt lat="46.27018356" lon="8.67774296"><ele></ele><time>2014-6-4T21:55:45Z</time></trkpt>
<trkpt lat="46.27021790" lon="8.67774105"><ele></ele><time>2014-6-4T21:55:48Z</time></trkpt>
<trkpt lat="46.27024078" lon="8.67772675"><ele></ele><time>2014-6-4T21:55:51Z</time></trkpt>
<trkpt lat="46.27025986" lon="8.67768192"><ele></ele><time>2014-6-4T21:55:54Z</time></trkpt>
<trkpt lat="46.27024841" lon="8.67758560"><ele></ele><time>2014-6-4T21:55:57Z</time></trkpt>
<trkpt lat="46.27029037" lon="8.67755795"><ele></ele><time>2014-6-4T21:56:0Z</time></trkpt>
<trkpt lat="46.27032852" lon="8.67751789"><ele></ele><time>2014-6-4T21:56:3Z</time></trkpt>
<trkpt lat="46.27034378" lon="8.67747211"><ele></ele><time>2014-6-4T21:56:6Z</time></trkpt>
<trkpt lat="46.27037430" lon="8.67745209"><ele></ele><time>2014-6-4T21:56:9Z</time></trkpt>
<trkpt lat="46.27042389" lon="8.67741585"><ele></ele><time>2014-6-4T21:56:12Z</time></trkpt>
<trkpt lat="46.27045441" lon="8.67738438"><ele></ele><time>2014-6-4T21:56:15Z</time></trkpt>
<trkpt lat="46.27047348" lon="8.67735386"><ele></ele><time>2014-6-4T21:56:18Z</time></trkpt>
<trkpt lat="46.27053070" lon="8.67727566"><ele></ele><time>2014-6-4T21:56:21Z</time></trkpt>
<trkpt lat="46.27056503" lon="8.67717266"><ele></ele><time>2014-6-4T21:56:24Z</time></trkpt>
<trkpt lat="46.27054214" lon="8.67704010"><ele></ele><time>2014-6-4T21:56:27Z</time></trkpt>
<trkpt lat="46.27053833" lon="8.67700100"><ele></ele><time>2014-6-4T21:56:30Z</time></trkpt>
<trkpt lat="46.27054214" lon="8.67693043"><ele></ele><time>2014-6-4T21:56:33Z</time></trkpt>
<trkpt lat="46.27057266" lon="8.67684555"><ele></ele><time>2014-6-4T21:56:36Z</time></trkpt>
<trkpt lat="46.27070999" lon="8.67670918"><ele></ele><time>2014-6-4T21:56:39Z</time></trkpt>
<trkpt lat="46.27077484" lon="8.67659378"><ele></ele><time>2014-6-4T21:56:42Z</time></trkpt>
<trkpt lat="46.27078247" lon="8.67658043"><ele></ele><time>2014-6-4T21:56:45Z</time></trkpt>
<trkpt lat="46.27082443" lon="8.67650700"><ele></ele><time>2014-6-4T21:56:48Z</time></trkpt>
<trkpt lat="46.27090836" lon="8.67637920"><ele></ele><time>2014-6-4T21:56:51Z</time></trkpt>
<trkpt lat="46.27096558" lon="8.67625046"><ele></ele><time>2014-6-4T21:56:54Z</time></trkpt>
<trkpt lat="46.27098465" lon="8.67625427"><ele></ele><time>2014-6-4T21:56:57Z</time></trkpt>
<trkpt lat="46.27103043" lon="8.67621231"><ele></ele><time>2014-6-4T21:57:0Z</time></trkpt>
<trkpt lat="46.27104568" lon="8.67621136"><ele></ele><time>2014-6-4T21:57:3Z</time></trkpt>
<trkpt lat="46.27106094" lon="8.67617130"><ele></ele><time>2014-6-4T21:57:6Z</time></trkpt>
<trkpt lat="46.27106094" lon="8.67616844"><ele></ele><time>2014-6-4T21:57:9Z</time></trkpt>
<trkpt lat="46.27115631" lon="8.67617226"><ele></ele><time>2014-6-4T21:57:12Z</time></trkpt>
<trkpt lat="46.27116394" lon="8.67614460"><ele></ele><time>2014-6-4T21:57:15Z</time></trkpt>
<trkpt lat="46.27121735" lon="8.67605209"><ele></ele><time>2014-6-4T21:57:18Z</time></trkpt>
<trkpt lat="46.27124023" lon="8.67587757"><ele></ele><time>2014-6-4T21:57:21Z</time></trkpt>
<trkpt lat="46.27132416" lon="8.67569923"><ele></ele><time>2014-6-4T21:57:24Z</time></trkpt>
<trkpt lat="46.27141190" lon="8.67553616"><ele></ele><time>2014-6-4T21:57:27Z</time></trkpt>
<trkpt lat="46.27145767" lon="8.67550182"><ele></ele><time>2014-6-4T21:57:30Z</time></trkpt>
<trkpt lat="46.27147675" lon="8.67550755"><ele></ele><time>2014-6-4T21:57:33Z</time></trkpt>
<trkpt lat="46.27151108" lon="8.67543793"><ele></ele><time>2014-6-4T21:57:36Z</time></trkpt>
<trkpt lat="46.27157211" lon="8.67535973"><ele></ele><time>2014-6-4T21:57:39Z</time></trkpt>
<trkpt lat="46.27158356" lon="8.67536259"><ele></ele><time>2014-6-4T21:57:42Z</time></trkpt>
<trkpt lat="46.27162933" lon="8.67532444"><ele></ele><time>2014-6-4T21:57:45Z</time></trkpt>
<trkpt lat="46.27163315" lon="8.67519760"><ele></ele><time>2014-6-4T21:57:48Z</time></trkpt>
<trkpt lat="46.27163315" lon="8.67516518"><ele></ele><time>2014-6-4T21:57:51Z</time></trkpt>
<trkpt lat="46.27167130" lon="8.67507076"><ele></ele><time>2014-6-4T21:57:54Z</time></trkpt>
<trkpt lat="46.27171707" lon="8.67496014"><ele></ele><time>2014-6-4T21:57:57Z</time></trkpt>
<trkpt lat="46.27181625" lon="8.67493820"><ele></ele><time>2014-6-4T21:58:0Z</time></trkpt>
<trkpt lat="46.27187729" lon="8.67491627"><ele></ele><time>2014-6-4T21:58:3Z</time></trkpt>
<trkpt lat="46.27192307" lon="8.67491913"><ele></ele><time>2014-6-4T21:58:6Z</time></trkpt>
<trkpt lat="46.27193451" lon="8.67486286"><ele></ele><time>2014-6-4T21:58:9Z</time></trkpt>
<trkpt lat="46.27194977" lon="8.67479801"><ele></ele><time>2014-6-4T21:58:12Z</time></trkpt>
<trkpt lat="46.27194977" lon="8.67479706"><ele></ele><time>2014-6-4T21:58:15Z</time></trkpt>
<trkpt lat="46.27198792" lon="8.67459488"><ele></ele><time>2014-6-4T21:58:18Z</time></trkpt>
<trkpt lat="46.27198792" lon="8.67456055"><ele></ele><time>2014-6-4T21:58:21Z</time></trkpt>
<trkpt lat="46.27198029" lon="8.67448616"><ele></ele><time>2014-6-4T21:58:24Z</time></trkpt>
<trkpt lat="46.27198792" lon="8.67448711"><ele></ele><time>2014-6-4T21:58:27Z</time></trkpt>
<trkpt lat="46.27218628" lon="8.67447853"><ele></ele><time>2014-6-4T21:58:30Z</time></trkpt>
<trkpt lat="46.27215576" lon="8.67437935"><ele></ele><time>2014-6-4T21:58:33Z</time></trkpt>
<trkpt lat="46.27213669" lon="8.67432404"><ele></ele><time>2014-6-4T21:58:36Z</time></trkpt>
<trkpt lat="46.27209854" lon="8.67410278"><ele></ele><time>2014-6-4T21:58:39Z</time></trkpt>
<trkpt lat="46.27206802" lon="8.67398071"><ele></ele><time>2014-6-4T21:58:42Z</time></trkpt>
<trkpt lat="46.27212143" lon="8.67401791"><ele></ele><time>2014-6-4T21:58:45Z</time></trkpt>
<trkpt lat="46.27215576" lon="8.67393017"><ele></ele><time>2014-6-4T21:58:48Z</time></trkpt>
<trkpt lat="46.27223587" lon="8.67392254"><ele></ele><time>2014-6-4T21:58:51Z</time></trkpt>
<trkpt lat="46.27257156" lon="8.67405033"><ele></ele><time>2014-6-4T21:58:54Z</time></trkpt>
<trkpt lat="46.27234268" lon="8.67393208"><ele></ele><time>2014-6-4T21:58:57Z</time></trkpt>
<trkpt lat="46.27227020" lon="8.67382145"><ele></ele><time>2014-6-4T21:59:0Z</time></trkpt>
<trkpt lat="46.27230453" lon="8.67365456"><ele></ele><time>2014-6-4T21:59:3Z</time></trkpt>
<trkpt lat="46.27233505" lon="8.67351437"><ele></ele><time>2014-6-4T21:59:6Z</time></trkpt>
<trkpt lat="46.27242279" lon="8.67342377"><ele></ele><time>2014-6-4T21:59:9Z</time></trkpt>
<trkpt lat="46.27246475" lon="8.67344570"><ele></ele><time>2014-6-4T21:59:12Z</time></trkpt>
<trkpt lat="46.27247238" lon="8.67340183"><ele></ele><time>2014-6-4T21:59:15Z</time></trkpt>
<trkpt lat="46.27248764" lon="8.67331886"><ele></ele><time>2014-6-4T21:59:18Z</time></trkpt>
<trkpt lat="46.27252579" lon="8.67326927"><ele></ele><time>2014-6-4T21:59:21Z</time></trkpt>
<trkpt lat="46.27295303" lon="8.67331123"><ele></ele><time>2014-6-4T21:59:24Z</time></trkpt>
<trkpt lat="46.27305984" lon="8.67332077"><ele></ele><time>2014-6-4T21:59:27Z</time></trkpt>
<trkpt lat="46.27305222" lon="8.67329693"><ele></ele><time>2014-6-4T21:59:30Z</time></trkpt>
<trkpt lat="46.27286530" lon="8.67318439"><ele></ele><time>2014-6-4T21:59:33Z</time></trkpt>
<trkpt lat="46.27273178" lon="8.67308998"><ele></ele><time>2014-6-4T21:59:36Z</time></trkpt>
<trkpt lat="46.27269363" lon="8.67302990"><ele></ele><time>2014-6-4T21:59:39Z</time></trkpt>
<trkpt lat="46.27268219" lon="8.67299747"><ele></ele><time>2014-6-4T21:59:42Z</time></trkpt>
<trkpt lat="46.27268219" lon="8.67294693"><ele></ele><time>2014-6-4T21:59:45Z</time></trkpt>
<trkpt lat="46.27269363" lon="8.67286301"><ele></ele><time>2014-6-4T21:59:48Z</time></trkpt>
<trkpt lat="46.27270889" lon="8.67284298"><ele></ele><time>2014-6-4T21:59:51Z</time></trkpt>
<trkpt lat="46.27274704" lon="8.67277241"><ele></ele><time>2014-6-4T21:59:54Z</time></trkpt>
<trkpt lat="46.27282715" lon="8.67264462"><ele></ele><time>2014-6-4T21:59:57Z</time></trkpt>
<trkpt lat="46.27286530" lon="8.67262840"><ele></ele><time>2014-6-4T22:0:0Z</time></trkpt>
<trkpt lat="46.27291870" lon="8.67262459"><ele></ele><time>2014-6-4T22:0:3Z</time></trkpt>
<trkpt lat="46.27297211" lon="8.67262268"><ele></ele><time>2014-6-4T22:0:6Z</time></trkpt>
<trkpt lat="46.27297974" lon="8.67261982"><ele></ele><time>2014-6-4T22:0:9Z</time></trkpt>
<trkpt lat="46.27299881" lon="8.67257977"><ele></ele><time>2014-6-4T22:0:12Z</time></trkpt>
<trkpt lat="46.27301788" lon="8.67255211"><ele></ele><time>2014-6-4T22:0:15Z</time></trkpt>
<trkpt lat="46.27307510" lon="8.67247581"><ele></ele><time>2014-6-4T22:0:18Z</time></trkpt>
<trkpt lat="46.27310181" lon="8.67245293"><ele></ele><time>2014-6-4T22:0:21Z</time></trkpt>
<trkpt lat="46.27314377" lon="8.67237663"><ele></ele><time>2014-6-4T22:0:24Z</time></trkpt>
<trkpt lat="46.27317047" lon="8.67234516"><ele></ele><time>2014-6-4T22:0:27Z</time></trkpt>
<trkpt lat="46.27317429" lon="8.67227745"><ele></ele><time>2014-6-4T22:0:30Z</time></trkpt>
<trkpt lat="46.27320480" lon="8.67228508"><ele></ele><time>2014-6-4T22:0:33Z</time></trkpt>
<trkpt lat="46.27333450" lon="8.67221642"><ele></ele><time>2014-6-4T22:0:36Z</time></trkpt>
<trkpt lat="46.27333832" lon="8.67209721"><ele></ele><time>2014-6-4T22:0:39Z</time></trkpt>
<trkpt lat="46.27337646" lon="8.67201805"><ele></ele><time>2014-6-4T22:0:42Z</time></trkpt>
<trkpt lat="46.27341843" lon="8.67193317"><ele></ele><time>2014-6-4T22:0:45Z</time></trkpt>
<trkpt lat="46.27344513" lon="8.67189407"><ele></ele><time>2014-6-4T22:0:48Z</time></trkpt>
<trkpt lat="46.27350616" lon="8.67183304"><ele></ele><time>2014-6-4T22:0:51Z</time></trkpt>
<trkpt lat="46.27351379" lon="8.67181206"><ele></ele><time>2014-6-4T22:0:54Z</time></trkpt>
<trkpt lat="46.27354050" lon="8.67179203"><ele></ele><time>2014-6-4T22:0:57Z</time></trkpt>
<trkpt lat="46.27359390" lon="8.67177868"><ele></ele><time>2014-6-4T22:1:0Z</time></trkpt>
<trkpt lat="46.27359390" lon="8.67176342"><ele></ele><time>2014-6-4T22:1:3Z</time></trkpt>
<trkpt lat="46.27364731" lon="8.67163944"><ele></ele><time>2014-6-4T22:1:6Z</time></trkpt>
<trkpt lat="46.27363968" lon="8.67142773"><ele></ele><time>2014-6-4T22:1:9Z</time></trkpt>
<trkpt lat="46.27363968" lon="8.67118931"><ele></ele><time>2014-6-4T22:1:12Z</time></trkpt>
<trkpt lat="46.27371979" lon="8.67095661"><ele></ele><time>2014-6-4T22:1:15Z</time></trkpt>
<trkpt lat="46.27373505" lon="8.67090702"><ele></ele><time>2014-6-4T22:1:18Z</time></trkpt>
<trkpt lat="46.27378464" lon="8.67060184"><ele></ele><time>2014-6-4T22:1:21Z</time></trkpt>
<trkpt lat="46.27389145" lon="8.67044735"><ele></ele><time>2014-6-4T22:1:24Z</time></trkpt>
<trkpt lat="46.27399826" lon="8.67029858"><ele></ele><time>2014-6-4T22:1:27Z</time></trkpt>
<trkpt lat="46.27408600" lon="8.67008781"><ele></ele><time>2014-6-4T22:1:30Z</time></trkpt>
<trkpt lat="46.27410889" lon="8.67003822"><ele></ele><time>2014-6-4T22:1:33Z</time></trkpt>
<trkpt lat="46.27413559" lon="8.66980934"><ele></ele><time>2014-6-4T22:1:36Z</time></trkpt>
<trkpt lat="46.27428818" lon="8.66969967"><ele></ele><time>2014-6-4T22:1:39Z</time></trkpt>
<trkpt lat="46.27434921" lon="8.66966438"><ele></ele><time>2014-6-4T22:1:42Z</time></trkpt>
<trkpt lat="46.27438736" lon="8.66965866"><ele></ele><time>2014-6-4T22:1:45Z</time></trkpt>
<trkpt lat="46.27445221" lon="8.66958809"><ele></ele><time>2014-6-4T22:1:48Z</time></trkpt>
<trkpt lat="46.27453232" lon="8.66951847"><ele></ele><time>2014-6-4T22:1:51Z</time></trkpt>
<trkpt lat="46.27454376" lon="8.66950989"><ele></ele><time>2014-6-4T22:1:54Z</time></trkpt>
<trkpt lat="46.27462769" lon="8.66942787"><ele></ele><time>2014-6-4T22:1:57Z</time></trkpt>
<trkpt lat="46.27475357" lon="8.66935730"><ele></ele><time>2014-6-4T22:2:0Z</time></trkpt>
<trkpt lat="46.27485657" lon="8.66927910"><ele></ele><time>2014-6-4T22:2:3Z</time></trkpt>
<trkpt lat="46.27492523" lon="8.66908455"><ele></ele><time>2014-6-4T22:2:6Z</time></trkpt>
<trkpt lat="46.27503586" lon="8.66884804"><ele></ele><time>2014-6-4T22:2:9Z</time></trkpt>
<trkpt lat="46.27513885" lon="8.66873264"><ele></ele><time>2014-6-4T22:2:12Z</time></trkpt>
<trkpt lat="46.27525711" lon="8.66865826"><ele></ele><time>2014-6-4T22:2:15Z</time></trkpt>
<trkpt lat="46.27535629" lon="8.66850185"><ele></ele><time>2014-6-4T22:2:18Z</time></trkpt>
<trkpt lat="46.27542496" lon="8.66835213"><ele></ele><time>2014-6-4T22:2:21Z</time></trkpt>
<trkpt lat="46.27549744" lon="8.66814232"><ele></ele><time>2014-6-4T22:2:24Z</time></trkpt>
<trkpt lat="46.27555084" lon="8.66805267"><ele></ele><time>2014-6-4T22:2:27Z</time></trkpt>
<trkpt lat="46.27579117" lon="8.66787910"><ele></ele><time>2014-6-4T22:2:30Z</time></trkpt>
<trkpt lat="46.27587509" lon="8.66781616"><ele></ele><time>2014-6-4T22:2:33Z</time></trkpt>
<trkpt lat="46.27598572" lon="8.66768646"><ele></ele><time>2014-6-4T22:2:36Z</time></trkpt>
<trkpt lat="46.27603912" lon="8.66763115"><ele></ele><time>2014-6-4T22:2:39Z</time></trkpt>
<trkpt lat="46.27611542" lon="8.66757584"><ele></ele><time>2014-6-4T22:2:42Z</time></trkpt>
<trkpt lat="46.27621841" lon="8.66744137"><ele></ele><time>2014-6-4T22:2:45Z</time></trkpt>
<trkpt lat="46.27629471" lon="8.66730690"><ele></ele><time>2014-6-4T22:2:48Z</time></trkpt>
<trkpt lat="46.27629089" lon="8.66724300"><ele></ele><time>2014-6-4T22:2:51Z</time></trkpt>
<trkpt lat="46.27641678" lon="8.66715908"><ele></ele><time>2014-6-4T22:2:54Z</time></trkpt>
<trkpt lat="46.27643585" lon="8.66709995"><ele></ele><time>2014-6-4T22:2:57Z</time></trkpt>
<trkpt lat="46.27649689" lon="8.66700268"><ele></ele><time>2014-6-4T22:3:0Z</time></trkpt>
<trkpt lat="46.27656937" lon="8.66696358"><ele></ele><time>2014-6-4T22:3:3Z</time></trkpt>
<trkpt lat="46.27666855" lon="8.66689587"><ele></ele><time>2014-6-4T22:3:6Z</time></trkpt>
<trkpt lat="46.27675629" lon="8.66679382"><ele></ele><time>2014-6-4T22:3:9Z</time></trkpt>
<trkpt lat="46.27680969" lon="8.66670990"><ele></ele><time>2014-6-4T22:3:12Z</time></trkpt>
<trkpt lat="46.27691650" lon="8.66670895"><ele></ele><time>2014-6-4T22:3:15Z</time></trkpt>
<trkpt lat="46.27693176" lon="8.66670799"><ele></ele><time>2014-6-4T22:3:18Z</time></trkpt>
<trkpt lat="46.27703857" lon="8.66666889"><ele></ele><time>2014-6-4T22:3:21Z</time></trkpt>
<trkpt lat="46.27713776" lon="8.66666317"><ele></ele><time>2014-6-4T22:3:24Z</time></trkpt>
<trkpt lat="46.27719879" lon="8.66663361"><ele></ele><time>2014-6-4T22:3:27Z</time></trkpt>
<trkpt lat="46.27730179" lon="8.66657925"><ele></ele><time>2014-6-4T22:3:30Z</time></trkpt>
<trkpt lat="46.27728653" lon="8.66656113"><ele></ele><time>2014-6-4T22:3:33Z</time></trkpt>
<trkpt lat="46.27731323" lon="8.66656113"><ele></ele><time>2014-6-4T22:3:36Z</time></trkpt>
<trkpt lat="46.27732468" lon="8.66654015"><ele></ele><time>2014-6-4T22:3:39Z</time></trkpt>
<trkpt lat="46.27735519" lon="8.66652203"><ele></ele><time>2014-6-4T22:3:42Z</time></trkpt>
<trkpt lat="46.27747726" lon="8.66644669"><ele></ele><time>2014-6-4T22:3:45Z</time></trkpt>
<trkpt lat="46.27758026" lon="8.66638947"><ele></ele><time>2014-6-4T22:3:48Z</time></trkpt>
<trkpt lat="46.27768326" lon="8.66641712"><ele></ele><time>2014-6-4T22:3:51Z</time></trkpt>
<trkpt lat="46.27779388" lon="8.66630554"><ele></ele><time>2014-6-4T22:3:54Z</time></trkpt>
<trkpt lat="46.27783585" lon="8.66626835"><ele></ele><time>2014-6-4T22:3:57Z</time></trkpt>
<trkpt lat="46.27800369" lon="8.66614723"><ele></ele><time>2014-6-4T22:4:0Z</time></trkpt>
<trkpt lat="46.27802277" lon="8.66608429"><ele></ele><time>2014-6-4T22:4:3Z</time></trkpt>
<trkpt lat="46.27801132" lon="8.66607189"><ele></ele><time>2014-6-4T22:4:6Z</time></trkpt>
<trkpt lat="46.27804947" lon="8.66606140"><ele></ele><time>2014-6-4T22:4:9Z</time></trkpt>
<trkpt lat="46.27805710" lon="8.66606045"><ele></ele><time>2014-6-4T22:4:12Z</time></trkpt>
<trkpt lat="46.27808762" lon="8.66599846"><ele></ele><time>2014-6-4T22:4:15Z</time></trkpt>
<trkpt lat="46.27809143" lon="8.66599369"><ele></ele><time>2014-6-4T22:4:18Z</time></trkpt>
<trkpt lat="46.27811813" lon="8.66598606"><ele></ele><time>2014-6-4T22:4:21Z</time></trkpt>
<trkpt lat="46.27819824" lon="8.66597557"><ele></ele><time>2014-6-4T22:4:24Z</time></trkpt>
<trkpt lat="46.27821732" lon="8.66596222"><ele></ele><time>2014-6-4T22:4:27Z</time></trkpt>
<trkpt lat="46.27826309" lon="8.66589260"><ele></ele><time>2014-6-4T22:4:30Z</time></trkpt>
<trkpt lat="46.27826691" lon="8.66589260"><ele></ele><time>2014-6-4T22:4:33Z</time></trkpt>
<trkpt lat="46.27832413" lon="8.66583824"><ele></ele><time>2014-6-4T22:4:36Z</time></trkpt>
<trkpt lat="46.27838898" lon="8.66573715"><ele></ele><time>2014-6-4T22:4:39Z</time></trkpt>
<trkpt lat="46.27849579" lon="8.66562557"><ele></ele><time>2014-6-4T22:4:42Z</time></trkpt>
<trkpt lat="46.27854538" lon="8.66555691"><ele></ele><time>2014-6-4T22:4:45Z</time></trkpt>
<trkpt lat="46.27863312" lon="8.66544819"><ele></ele><time>2014-6-4T22:4:48Z</time></trkpt>
<trkpt lat="46.27867126" lon="8.66537189"><ele></ele><time>2014-6-4T22:4:51Z</time></trkpt>
<trkpt lat="46.27870941" lon="8.66528893"><ele></ele><time>2014-6-4T22:4:54Z</time></trkpt>
<trkpt lat="46.27882385" lon="8.66525364"><ele></ele><time>2014-6-4T22:4:57Z</time></trkpt>
<trkpt lat="46.27889252" lon="8.66521454"><ele></ele><time>2014-6-4T22:5:0Z</time></trkpt>
<trkpt lat="46.27903366" lon="8.66507435"><ele></ele><time>2014-6-4T22:5:3Z</time></trkpt>
<trkpt lat="46.27904510" lon="8.66505909"><ele></ele><time>2014-6-4T22:5:6Z</time></trkpt>
<trkpt lat="46.27906418" lon="8.66493130"><ele></ele><time>2014-6-4T22:5:9Z</time></trkpt>
<trkpt lat="46.27906418" lon="8.66480637"><ele></ele><time>2014-6-4T22:5:12Z</time></trkpt>
<trkpt lat="46.27910233" lon="8.66468430"><ele></ele><time>2014-6-4T22:5:15Z</time></trkpt>
<trkpt lat="46.27927780" lon="8.66454983"><ele></ele><time>2014-6-4T22:5:18Z</time></trkpt>
<trkpt lat="46.27936172" lon="8.66450310"><ele></ele><time>2014-6-4T22:5:21Z</time></trkpt>
<trkpt lat="46.27949142" lon="8.66433334"><ele></ele><time>2014-6-4T22:5:24Z</time></trkpt>
<trkpt lat="46.27948380" lon="8.66409302"><ele></ele><time>2014-6-4T22:5:27Z</time></trkpt>
<trkpt lat="46.27947998" lon="8.66404438"><ele></ele><time>2014-6-4T22:5:30Z</time></trkpt>
<trkpt lat="46.27942276" lon="8.66378021"><ele></ele><time>2014-6-4T22:5:33Z</time></trkpt>
<trkpt lat="46.27938461" lon="8.66366863"><ele></ele><time>2014-6-4T22:5:36Z</time></trkpt>
<trkpt lat="46.27931976" lon="8.66336727"><ele></ele><time>2014-6-4T22:5:39Z</time></trkpt>
<trkpt lat="46.27928925" lon="8.66317368"><ele></ele><time>2014-6-4T22:5:42Z</time></trkpt>
<trkpt lat="46.27926636" lon="8.66312122"><ele></ele><time>2014-6-4T22:5:45Z</time></trkpt>
<trkpt lat="46.27924347" lon="8.66300011"><ele></ele><time>2014-6-4T22:5:48Z</time></trkpt>
<trkpt lat="46.27918243" lon="8.66261482"><ele></ele><time>2014-6-4T22:5:51Z</time></trkpt>
<trkpt lat="46.27914047" lon="8.66238499"><ele></ele><time>2014-6-4T22:5:54Z</time></trkpt>
<trkpt lat="46.27913284" lon="8.66224003"><ele></ele><time>2014-6-4T22:5:57Z</time></trkpt>
<trkpt lat="46.27914047" lon="8.66209316"><ele></ele><time>2014-6-4T22:6:0Z</time></trkpt>
<trkpt lat="46.27912903" lon="8.66201496"><ele></ele><time>2014-6-4T22:6:3Z</time></trkpt>
<trkpt lat="46.27915955" lon="8.66196060"><ele></ele><time>2014-6-4T22:6:6Z</time></trkpt>
<trkpt lat="46.27917862" lon="8.66194630"><ele></ele><time>2014-6-4T22:6:9Z</time></trkpt>
<trkpt lat="46.27920914" lon="8.66186714"><ele></ele><time>2014-6-4T22:6:12Z</time></trkpt>
<trkpt lat="46.27920151" lon="8.66177940"><ele></ele><time>2014-6-4T22:6:15Z</time></trkpt>
<trkpt lat="46.27922058" lon="8.66171360"><ele></ele><time>2014-6-4T22:6:18Z</time></trkpt>
<trkpt lat="46.27923965" lon="8.66164684"><ele></ele><time>2014-6-4T22:6:21Z</time></trkpt>
<trkpt lat="46.27925110" lon="8.66162968"><ele></ele><time>2014-6-4T22:6:24Z</time></trkpt>
<trkpt lat="46.27929688" lon="8.66159344"><ele></ele><time>2014-6-4T22:6:27Z</time></trkpt>
<trkpt lat="46.27930832" lon="8.66158104"><ele></ele><time>2014-6-4T22:6:30Z</time></trkpt>
<trkpt lat="46.27928925" lon="8.66148567"><ele></ele><time>2014-6-4T22:6:33Z</time></trkpt>
<trkpt lat="46.27929688" lon="8.66148090"><ele></ele><time>2014-6-4T22:6:36Z</time></trkpt>
<trkpt lat="46.27933884" lon="8.66148186"><ele></ele><time>2014-6-4T22:6:39Z</time></trkpt>
<trkpt lat="46.27936554" lon="8.66142273"><ele></ele><time>2014-6-4T22:6:42Z</time></trkpt>
<trkpt lat="46.27941132" lon="8.66134167"><ele></ele><time>2014-6-4T22:6:45Z</time></trkpt>
<trkpt lat="46.27947235" lon="8.66123962"><ele></ele><time>2014-6-4T22:6:48Z</time></trkpt>
<trkpt lat="46.27952957" lon="8.66118813"><ele></ele><time>2014-6-4T22:6:51Z</time></trkpt>
<trkpt lat="46.27954483" lon="8.66113472"><ele></ele><time>2014-6-4T22:6:54Z</time></trkpt>
<trkpt lat="46.27954102" lon="8.66109657"><ele></ele><time>2014-6-4T22:6:57Z</time></trkpt>
<trkpt lat="46.27956772" lon="8.66104603"><ele></ele><time>2014-6-4T22:7:0Z</time></trkpt>
<trkpt lat="46.27960587" lon="8.66100311"><ele></ele><time>2014-6-4T22:7:3Z</time></trkpt>
<trkpt lat="46.27967453" lon="8.66099739"><ele></ele><time>2014-6-4T22:7:6Z</time></trkpt>
<trkpt lat="46.27972031" lon="8.66086960"><ele></ele><time>2014-6-4T22:7:9Z</time></trkpt>
<trkpt lat="46.27971649" lon="8.66081238"><ele></ele><time>2014-6-4T22:7:12Z</time></trkpt>
<trkpt lat="46.27972794" lon="8.66073799"><ele></ele><time>2014-6-4T22:7:15Z</time></trkpt>
<trkpt lat="46.27973557" lon="8.66071415"><ele></ele><time>2014-6-4T22:7:18Z</time></trkpt>
<trkpt lat="46.27974319" lon="8.66068077"><ele></ele><time>2014-6-4T22:7:21Z</time></trkpt>
<trkpt lat="46.27968216" lon="8.66053772"><ele></ele><time>2014-6-4T22:7:24Z</time></trkpt>
<trkpt lat="46.27973938" lon="8.66048622"><ele></ele><time>2014-6-4T22:7:27Z</time></trkpt>
<trkpt lat="46.27974701" lon="8.66044235"><ele></ele><time>2014-6-4T22:7:30Z</time></trkpt>
<trkpt lat="46.27988052" lon="8.66042328"><ele></ele><time>2014-6-4T22:7:33Z</time></trkpt>
<trkpt lat="46.27991867" lon="8.66035843"><ele></ele><time>2014-6-4T22:7:36Z</time></trkpt>
<trkpt lat="46.27995300" lon="8.66027355"><ele></ele><time>2014-6-4T22:7:39Z</time></trkpt>
<trkpt lat="46.28005981" lon="8.66020107"><ele></ele><time>2014-6-4T22:7:42Z</time></trkpt>
<trkpt lat="46.28023148" lon="8.66009998"><ele></ele><time>2014-6-4T22:7:45Z</time></trkpt>
<trkpt lat="46.28033829" lon="8.65994835"><ele></ele><time>2014-6-4T22:7:48Z</time></trkpt>
<trkpt lat="46.28054810" lon="8.65981197"><ele></ele><time>2014-6-4T22:7:51Z</time></trkpt>
<trkpt lat="46.28074265" lon="8.65972996"><ele></ele><time>2014-6-4T22:7:54Z</time></trkpt>
<trkpt lat="46.28093338" lon="8.65968132"><ele></ele><time>2014-6-4T22:7:57Z</time></trkpt>
<trkpt lat="46.28100586" lon="8.65968990"><ele></ele><time>2014-6-4T22:8:0Z</time></trkpt>
<trkpt lat="46.28121948" lon="8.65953732"><ele></ele><time>2014-6-4T22:8:3Z</time></trkpt>
<trkpt lat="46.28129578" lon="8.65946865"><ele></ele><time>2014-6-4T22:8:6Z</time></trkpt>
<trkpt lat="46.28129578" lon="8.65945625"><ele></ele><time>2014-6-4T22:8:9Z</time></trkpt>
<trkpt lat="46.28131485" lon="8.65939236"><ele></ele><time>2014-6-4T22:8:12Z</time></trkpt>
<trkpt lat="46.28133774" lon="8.65937710"><ele></ele><time>2014-6-4T22:8:15Z</time></trkpt>
<trkpt lat="46.28143311" lon="8.65931416"><ele></ele><time>2014-6-4T22:8:18Z</time></trkpt>
<trkpt lat="46.28148651" lon="8.65925694"><ele></ele><time>2014-6-4T22:8:21Z</time></trkpt>
<trkpt lat="46.28153229" lon="8.65920162"><ele></ele><time>2014-6-4T22:8:24Z</time></trkpt>
<trkpt lat="46.28160858" lon="8.65910053"><ele></ele><time>2014-6-4T22:8:27Z</time></trkpt>
<trkpt lat="46.28162003" lon="8.65903854"><ele></ele><time>2014-6-4T22:8:30Z</time></trkpt>
<trkpt lat="46.28164291" lon="8.65899754"><ele></ele><time>2014-6-4T22:8:33Z</time></trkpt>
<trkpt lat="46.28166199" lon="8.65892696"><ele></ele><time>2014-6-4T22:8:36Z</time></trkpt>
<trkpt lat="46.28171921" lon="8.65878963"><ele></ele><time>2014-6-4T22:8:39Z</time></trkpt>
<trkpt lat="46.28186035" lon="8.65855694"><ele></ele><time>2014-6-4T22:8:42Z</time></trkpt>
<trkpt lat="46.28210068" lon="8.65832901"><ele></ele><time>2014-6-4T22:8:45Z</time></trkpt>
<trkpt lat="46.28216171" lon="8.65814877"><ele></ele><time>2014-6-4T22:8:48Z</time></trkpt>
<trkpt lat="46.28216171" lon="8.65793037"><ele></ele><time>2014-6-4T22:8:51Z</time></trkpt>
<trkpt lat="46.28216934" lon="8.65787983"><ele></ele><time>2014-6-4T22:8:54Z</time></trkpt>
<trkpt lat="46.28218842" lon="8.65762138"><ele></ele><time>2014-6-4T22:8:57Z</time></trkpt>
<trkpt lat="46.28219223" lon="8.65735722"><ele></ele><time>2014-6-4T22:9:0Z</time></trkpt>
<trkpt lat="46.28217316" lon="8.65713120"><ele></ele><time>2014-6-4T22:9:3Z</time></trkpt>
<trkpt lat="46.28216934" lon="8.65708256"><ele></ele><time>2014-6-4T22:9:6Z</time></trkpt>
<trkpt lat="46.28221893" lon="8.65692711"><ele></ele><time>2014-6-4T22:9:9Z</time></trkpt>
<trkpt lat="46.28231812" lon="8.65685177"><ele></ele><time>2014-6-4T22:9:12Z</time></trkpt>
<trkpt lat="46.28250885" lon="8.65687370"><ele></ele><time>2014-6-4T22:9:15Z</time></trkpt>
<trkpt lat="46.28261948" lon="8.65686417"><ele></ele><time>2014-6-4T22:9:18Z</time></trkpt>
<trkpt lat="46.28270340" lon="8.65671635"><ele></ele><time>2014-6-4T22:9:21Z</time></trkpt>
<trkpt lat="46.28272629" lon="8.65668869"><ele></ele><time>2014-6-4T22:9:24Z</time></trkpt>
<trkpt lat="46.28277588" lon="8.65658283"><ele></ele><time>2014-6-4T22:9:27Z</time></trkpt>
<trkpt lat="46.28287125" lon="8.65636253"><ele></ele><time>2014-6-4T22:9:30Z</time></trkpt>
<trkpt lat="46.28300858" lon="8.65614033"><ele></ele><time>2014-6-4T22:9:33Z</time></trkpt>
<trkpt lat="46.28312302" lon="8.65594006"><ele></ele><time>2014-6-4T22:9:36Z</time></trkpt>
<trkpt lat="46.28319931" lon="8.65577602"><ele></ele><time>2014-6-4T22:9:39Z</time></trkpt>
<trkpt lat="46.28322220" lon="8.65573215"><ele></ele><time>2014-6-4T22:9:42Z</time></trkpt>
<trkpt lat="46.28334427" lon="8.65546036"><ele></ele><time>2014-6-4T22:9:45Z</time></trkpt>
<trkpt lat="46.28343201" lon="8.65528107"><ele></ele><time>2014-6-4T22:9:48Z</time></trkpt>
<trkpt lat="46.28354645" lon="8.65507412"><ele></ele><time>2014-6-4T22:9:51Z</time></trkpt>
<trkpt lat="46.28364944" lon="8.65493965"><ele></ele><time>2014-6-4T22:9:54Z</time></trkpt>
<trkpt lat="46.28370667" lon="8.65474987"><ele></ele><time>2014-6-4T22:9:57Z</time></trkpt>
<trkpt lat="46.28376770" lon="8.65454674"><ele></ele><time>2014-6-4T22:10:0Z</time></trkpt>
<trkpt lat="46.28384018" lon="8.65447426"><ele></ele><time>2014-6-4T22:10:3Z</time></trkpt>
<trkpt lat="46.28386307" lon="8.65447521"><ele></ele><time>2014-6-4T22:10:6Z</time></trkpt>
<trkpt lat="46.28392792" lon="8.65450859"><ele></ele><time>2014-6-4T22:10:9Z</time></trkpt>
<trkpt lat="46.28397751" lon="8.65456772"><ele></ele><time>2014-6-4T22:10:12Z</time></trkpt>
<trkpt lat="46.28400040" lon="8.65460968"><ele></ele><time>2014-6-4T22:10:15Z</time></trkpt>
<trkpt lat="46.28411865" lon="8.65468788"><ele></ele><time>2014-6-4T22:10:18Z</time></trkpt>
<trkpt lat="46.28416443" lon="8.65475368"><ele></ele><time>2014-6-4T22:10:21Z</time></trkpt>
<trkpt lat="46.28418732" lon="8.65489388"><ele></ele><time>2014-6-4T22:10:24Z</time></trkpt>
<trkpt lat="46.28429413" lon="8.65501213"><ele></ele><time>2014-6-4T22:10:27Z</time></trkpt>
<trkpt lat="46.28430176" lon="8.65501595"><ele></ele><time>2014-6-4T22:10:30Z</time></trkpt>
<trkpt lat="46.28434753" lon="8.65506077"><ele></ele><time>2014-6-4T22:10:33Z</time></trkpt>
<trkpt lat="46.28444290" lon="8.65516567"><ele></ele><time>2014-6-4T22:10:36Z</time></trkpt>
<trkpt lat="46.28455734" lon="8.65530014"><ele></ele><time>2014-6-4T22:10:39Z</time></trkpt>
<trkpt lat="46.28464890" lon="8.65540791"><ele></ele><time>2014-6-4T22:10:42Z</time></trkpt>
<trkpt lat="46.28473663" lon="8.65550804"><ele></ele><time>2014-6-4T22:10:45Z</time></trkpt>
<trkpt lat="46.28480911" lon="8.65559673"><ele></ele><time>2014-6-4T22:10:48Z</time></trkpt>
<trkpt lat="46.28489685" lon="8.65569305"><ele></ele><time>2014-6-4T22:10:51Z</time></trkpt>
<trkpt lat="46.28503036" lon="8.65585327"><ele></ele><time>2014-6-4T22:10:54Z</time></trkpt>
<trkpt lat="46.28517532" lon="8.65603065"><ele></ele><time>2014-6-4T22:10:57Z</time></trkpt>
<trkpt lat="46.28522491" lon="8.65608883"><ele></ele><time>2014-6-4T22:11:0Z</time></trkpt>
<trkpt lat="46.28528976" lon="8.65616512"><ele></ele><time>2014-6-4T22:11:3Z</time></trkpt>
<trkpt lat="46.28539276" lon="8.65628338"><ele></ele><time>2014-6-4T22:11:6Z</time></trkpt>
<trkpt lat="46.28544998" lon="8.65635490"><ele></ele><time>2014-6-4T22:11:9Z</time></trkpt>
<trkpt lat="46.28553009" lon="8.65644360"><ele></ele><time>2014-6-4T22:11:12Z</time></trkpt>
<trkpt lat="46.28561020" lon="8.65654087"><ele></ele><time>2014-6-4T22:11:15Z</time></trkpt>
<trkpt lat="46.28575897" lon="8.65671730"><ele></ele><time>2014-6-4T22:11:18Z</time></trkpt>
<trkpt lat="46.28582764" lon="8.65679455"><ele></ele><time>2014-6-4T22:11:21Z</time></trkpt>
<trkpt lat="46.28582764" lon="8.65679455"><ele></ele><time>2014-6-4T22:11:24Z</time></trkpt>
<trkpt lat="46.28586578" lon="8.65684700"><ele></ele><time>2014-6-4T22:11:27Z</time></trkpt>
<trkpt lat="46.28598404" lon="8.65699005"><ele></ele><time>2014-6-4T22:11:30Z</time></trkpt>
<trkpt lat="46.28616333" lon="8.65720463"><ele></ele><time>2014-6-4T22:11:33Z</time></trkpt>
<trkpt lat="46.28634262" lon="8.65741539"><ele></ele><time>2014-6-4T22:11:36Z</time></trkpt>
<trkpt lat="46.28643799" lon="8.65753460"><ele></ele><time>2014-6-4T22:11:39Z</time></trkpt>
<trkpt lat="46.28655243" lon="8.65767765"><ele></ele><time>2014-6-4T22:11:42Z</time></trkpt>
<trkpt lat="46.28653717" lon="8.65773010"><ele></ele><time>2014-6-4T22:11:45Z</time></trkpt>
<trkpt lat="46.28641510" lon="8.65785408"><ele></ele><time>2014-6-4T22:11:48Z</time></trkpt>
<trkpt lat="46.28635025" lon="8.65793705"><ele></ele><time>2014-6-4T22:11:51Z</time></trkpt>
<trkpt lat="46.28618622" lon="8.65810966"><ele></ele><time>2014-6-4T22:11:54Z</time></trkpt>
<trkpt lat="46.28594971" lon="8.65829945"><ele></ele><time>2014-6-4T22:11:57Z</time></trkpt>
<trkpt lat="46.28586578" lon="8.65840054"><ele></ele><time>2014-6-4T22:12:0Z</time></trkpt>
<trkpt lat="46.28577042" lon="8.65848923"><ele></ele><time>2014-6-4T22:12:3Z</time></trkpt>
<trkpt lat="46.28566360" lon="8.65864658"><ele></ele><time>2014-6-4T22:12:6Z</time></trkpt>
<trkpt lat="46.28556442" lon="8.65898895"><ele></ele><time>2014-6-4T22:12:9Z</time></trkpt>
<trkpt lat="46.28549576" lon="8.65921974"><ele></ele><time>2014-6-4T22:12:12Z</time></trkpt>
<trkpt lat="46.28533936" lon="8.65951824"><ele></ele><time>2014-6-4T22:12:15Z</time></trkpt>
<trkpt lat="46.28522873" lon="8.65969467"><ele></ele><time>2014-6-4T22:12:18Z</time></trkpt>
<trkpt lat="46.28505325" lon="8.66005707"><ele></ele><time>2014-6-4T22:12:21Z</time></trkpt>
<trkpt lat="46.28482437" lon="8.66028881"><ele></ele><time>2014-6-4T22:12:24Z</time></trkpt>
<trkpt lat="46.28477859" lon="8.66047096"><ele></ele><time>2014-6-4T22:12:27Z</time></trkpt>
<trkpt lat="46.28482437" lon="8.66106892"><ele></ele><time>2014-6-4T22:12:30Z</time></trkpt>
<trkpt lat="46.28480148" lon="8.66138935"><ele></ele><time>2014-6-4T22:12:33Z</time></trkpt>
<trkpt lat="46.28479767" lon="8.66144657"><ele></ele><time>2014-6-4T22:12:36Z</time></trkpt>
<trkpt lat="46.28470993" lon="8.66152954"><ele></ele><time>2014-6-4T22:12:39Z</time></trkpt>
<trkpt lat="46.28466415" lon="8.66152668"><ele></ele><time>2014-6-4T22:12:42Z</time></trkpt>
<trkpt lat="46.28446579" lon="8.66160583"><ele></ele><time>2014-6-4T22:12:45Z</time></trkpt>
<trkpt lat="46.28433228" lon="8.66177940"><ele></ele><time>2014-6-4T22:12:48Z</time></trkpt>
<trkpt lat="46.28424454" lon="8.66213131"><ele></ele><time>2014-6-4T22:12:51Z</time></trkpt>
<trkpt lat="46.28420258" lon="8.66220760"><ele></ele><time>2014-6-4T22:12:54Z</time></trkpt>
<trkpt lat="46.28396606" lon="8.66263676"><ele></ele><time>2014-6-4T22:12:57Z</time></trkpt>
<trkpt lat="46.28380585" lon="8.66289711"><ele></ele><time>2014-6-4T22:13:0Z</time></trkpt>
<trkpt lat="46.28373337" lon="8.66323662"><ele></ele><time>2014-6-4T22:13:3Z</time></trkpt>
<trkpt lat="46.28372955" lon="8.66333199"><ele></ele><time>2014-6-4T22:13:6Z</time></trkpt>
<trkpt lat="46.28374863" lon="8.66370010"><ele></ele><time>2014-6-4T22:13:9Z</time></trkpt>
<trkpt lat="46.28366470" lon="8.66390800"><ele></ele><time>2014-6-4T22:13:12Z</time></trkpt>
<trkpt lat="46.28360748" lon="8.66394234"><ele></ele><time>2014-6-4T22:13:15Z</time></trkpt>
<trkpt lat="46.28343582" lon="8.66404247"><ele></ele><time>2014-6-4T22:13:18Z</time></trkpt>
<trkpt lat="46.28332901" lon="8.66414356"><ele></ele><time>2014-6-4T22:13:21Z</time></trkpt>
<trkpt lat="46.28308868" lon="8.66424179"><ele></ele><time>2014-6-4T22:13:24Z</time></trkpt>
<trkpt lat="46.28295517" lon="8.66425705"><ele></ele><time>2014-6-4T22:13:27Z</time></trkpt>
<trkpt lat="46.28267670" lon="8.66442013"><ele></ele><time>2014-6-4T22:13:30Z</time></trkpt>
<trkpt lat="46.28242874" lon="8.66458988"><ele></ele><time>2014-6-4T22:13:33Z</time></trkpt>
<trkpt lat="46.28208160" lon="8.66482830"><ele></ele><time>2014-6-4T22:13:36Z</time></trkpt>
<trkpt lat="46.28188705" lon="8.66492271"><ele></ele><time>2014-6-4T22:13:39Z</time></trkpt>
<trkpt lat="46.28178787" lon="8.66512108"><ele></ele><time>2014-6-4T22:13:42Z</time></trkpt>
<trkpt lat="46.28179932" lon="8.66526508"><ele></ele><time>2014-6-4T22:13:45Z</time></trkpt>
<trkpt lat="46.28184509" lon="8.66590023"><ele></ele><time>2014-6-4T22:13:48Z</time></trkpt>
<trkpt lat="46.28175354" lon="8.66621590"><ele></ele><time>2014-6-4T22:13:51Z</time></trkpt>
<trkpt lat="46.28164673" lon="8.66631603"><ele></ele><time>2014-6-4T22:13:54Z</time></trkpt>
<trkpt lat="46.28154373" lon="8.66640282"><ele></ele><time>2014-6-4T22:13:57Z</time></trkpt>
<trkpt lat="46.28139114" lon="8.66669464"><ele></ele><time>2014-6-4T22:14:0Z</time></trkpt>
<trkpt lat="46.28115463" lon="8.66720390"><ele></ele><time>2014-6-4T22:14:3Z</time></trkpt>
<trkpt lat="46.28112793" lon="8.66727924"><ele></ele><time>2014-6-4T22:14:6Z</time></trkpt>
<trkpt lat="46.28109360" lon="8.66742229"><ele></ele><time>2014-6-4T22:14:9Z</time></trkpt>
<trkpt lat="46.28113556" lon="8.66768456"><ele></ele><time>2014-6-4T22:14:12Z</time></trkpt>
<trkpt lat="46.28115463" lon="8.66781425"><ele></ele><time>2014-6-4T22:14:15Z</time></trkpt>
<trkpt lat="46.28116989" lon="8.66806126"><ele></ele><time>2014-6-4T22:14:18Z</time></trkpt>
<trkpt lat="46.28117752" lon="8.66824245"><ele></ele><time>2014-6-4T22:14:21Z</time></trkpt>
<trkpt lat="46.28120041" lon="8.66836357"><ele></ele><time>2014-6-4T22:14:24Z</time></trkpt>
<trkpt lat="46.28124619" lon="8.66853905"><ele></ele><time>2014-6-4T22:14:27Z</time></trkpt>
<trkpt lat="46.28122711" lon="8.66866589"><ele></ele><time>2014-6-4T22:14:30Z</time></trkpt>
<trkpt lat="46.28120041" lon="8.66878891"><ele></ele><time>2014-6-4T22:14:33Z</time></trkpt>
<trkpt lat="46.28117371" lon="8.66881371"><ele></ele><time>2014-6-4T22:14:36Z</time></trkpt>
<trkpt lat="46.28113937" lon="8.66886616"><ele></ele><time>2014-6-4T22:14:39Z</time></trkpt>
<trkpt lat="46.28113937" lon="8.66882992"><ele></ele><time>2014-6-4T22:14:42Z</time></trkpt>
<trkpt lat="46.28114319" lon="8.66882420"><ele></ele><time>2014-6-4T22:14:45Z</time></trkpt>
<trkpt lat="46.28118515" lon="8.66872787"><ele></ele><time>2014-6-4T22:14:48Z</time></trkpt>
<trkpt lat="46.28119659" lon="8.66865635"><ele></ele><time>2014-6-4T22:14:51Z</time></trkpt>
<trkpt lat="46.28119278" lon="8.66845226"><ele></ele><time>2014-6-4T22:14:54Z</time></trkpt>
<trkpt lat="46.28118515" lon="8.66841412"><ele></ele><time>2014-6-4T22:14:57Z</time></trkpt>
<trkpt lat="46.28114319" lon="8.66823864"><ele></ele><time>2014-6-4T22:15:0Z</time></trkpt>
<trkpt lat="46.28112411" lon="8.66806602"><ele></ele><time>2014-6-4T22:15:3Z</time></trkpt>
<trkpt lat="46.28110886" lon="8.66783619"><ele></ele><time>2014-6-4T22:15:6Z</time></trkpt>
<trkpt lat="46.28107834" lon="8.66757298"><ele></ele><time>2014-6-4T22:15:9Z</time></trkpt>
<trkpt lat="46.28103638" lon="8.66749668"><ele></ele><time>2014-6-4T22:15:12Z</time></trkpt>
<trkpt lat="46.28106689" lon="8.66741371"><ele></ele><time>2014-6-4T22:15:15Z</time></trkpt>
<trkpt lat="46.28112030" lon="8.66721439"><ele></ele><time>2014-6-4T22:15:18Z</time></trkpt>
<trkpt lat="46.28120422" lon="8.66702175"><ele></ele><time>2014-6-4T22:15:21Z</time></trkpt>
<trkpt lat="46.28137207" lon="8.66670990"><ele></ele><time>2014-6-4T22:15:24Z</time></trkpt>
<trkpt lat="46.28144455" lon="8.66643524"><ele></ele><time>2014-6-4T22:15:27Z</time></trkpt>
<trkpt lat="46.28134537" lon="8.66633797"><ele></ele><time>2014-6-4T22:15:30Z</time></trkpt>
<trkpt lat="46.28121948" lon="8.66630363"><ele></ele><time>2014-6-4T22:15:33Z</time></trkpt>
<trkpt lat="46.28115463" lon="8.66616344"><ele></ele><time>2014-6-4T22:15:36Z</time></trkpt>
<trkpt lat="46.28111649" lon="8.66605759"><ele></ele><time>2014-6-4T22:15:39Z</time></trkpt>
<trkpt lat="46.28110504" lon="8.66604996"><ele></ele><time>2014-6-4T22:15:42Z</time></trkpt>
<trkpt lat="46.28116989" lon="8.66613865"><ele></ele><time>2014-6-4T22:15:45Z</time></trkpt>
<trkpt lat="46.28118896" lon="8.66622925"><ele></ele><time>2014-6-4T22:15:48Z</time></trkpt>
<trkpt lat="46.28131485" lon="8.66631317"><ele></ele><time>2014-6-4T22:15:51Z</time></trkpt>
<trkpt lat="46.28142548" lon="8.66634560"><ele></ele><time>2014-6-4T22:15:54Z</time></trkpt>
<trkpt lat="46.28145981" lon="8.66648483"><ele></ele><time>2014-6-4T22:15:57Z</time></trkpt>
<trkpt lat="46.28132629" lon="8.66690731"><ele></ele><time>2014-6-4T22:16:0Z</time></trkpt>
<trkpt lat="46.28122330" lon="8.66706085"><ele></ele><time>2014-6-4T22:16:3Z</time></trkpt>
<trkpt lat="46.28111649" lon="8.66735363"><ele></ele><time>2014-6-4T22:16:6Z</time></trkpt>
<trkpt lat="46.28104019" lon="8.66762638"><ele></ele><time>2014-6-4T22:16:9Z</time></trkpt>
<trkpt lat="46.28097534" lon="8.66781235"><ele></ele><time>2014-6-4T22:16:12Z</time></trkpt>
<trkpt lat="46.28082657" lon="8.66796494"><ele></ele><time>2014-6-4T22:16:15Z</time></trkpt>
<trkpt lat="46.28079605" lon="8.66799068"><ele></ele><time>2014-6-4T22:16:18Z</time></trkpt>
<trkpt lat="46.28062439" lon="8.66807461"><ele></ele><time>2014-6-4T22:16:21Z</time></trkpt>
<trkpt lat="46.28048706" lon="8.66818237"><ele></ele><time>2014-6-4T22:16:24Z</time></trkpt>
<trkpt lat="46.28034592" lon="8.66832638"><ele></ele><time>2014-6-4T22:16:27Z</time></trkpt>
<trkpt lat="46.28027725" lon="8.66837025"><ele></ele><time>2014-6-4T22:16:30Z</time></trkpt>
<trkpt lat="46.28016663" lon="8.66855240"><ele></ele><time>2014-6-4T22:16:33Z</time></trkpt>
<trkpt lat="46.28007889" lon="8.66882229"><ele></ele><time>2014-6-4T22:16:36Z</time></trkpt>
<trkpt lat="46.27990341" lon="8.66917324"><ele></ele><time>2014-6-4T22:16:39Z</time></trkpt>
<trkpt lat="46.27975845" lon="8.66938019"><ele></ele><time>2014-6-4T22:16:42Z</time></trkpt>
<trkpt lat="46.27973175" lon="8.66940784"><ele></ele><time>2014-6-4T22:16:45Z</time></trkpt>
<trkpt lat="46.27968979" lon="8.66959381"><ele></ele><time>2014-6-4T22:16:48Z</time></trkpt>
<trkpt lat="46.27968979" lon="8.66973972"><ele></ele><time>2014-6-4T22:16:51Z</time></trkpt>
<trkpt lat="46.27965546" lon="8.66985035"><ele></ele><time>2014-6-4T22:16:54Z</time></trkpt>
<trkpt lat="46.27959442" lon="8.67005539"><ele></ele><time>2014-6-4T22:16:57Z</time></trkpt>
<trkpt lat="46.27956772" lon="8.67009258"><ele></ele><time>2014-6-4T22:17:0Z</time></trkpt>
<trkpt lat="46.27954483" lon="8.67016411"><ele></ele><time>2014-6-4T22:17:3Z</time></trkpt>
<trkpt lat="46.27953720" lon="8.67018509"><ele></ele><time>2014-6-4T22:17:6Z</time></trkpt>
<trkpt lat="46.27950668" lon="8.67019272"><ele></ele><time>2014-6-4T22:17:9Z</time></trkpt>
<trkpt lat="46.27946472" lon="8.67029285"><ele></ele><time>2014-6-4T22:17:12Z</time></trkpt>
<trkpt lat="46.27942276" lon="8.67037773"><ele></ele><time>2014-6-4T22:17:15Z</time></trkpt>
<trkpt lat="46.27935410" lon="8.67052269"><ele></ele><time>2014-6-4T22:17:18Z</time></trkpt>
<trkpt lat="46.27928543" lon="8.67057228"><ele></ele><time>2014-6-4T22:17:21Z</time></trkpt>
<trkpt lat="46.27923965" lon="8.67058372"><ele></ele><time>2014-6-4T22:17:24Z</time></trkpt>
<trkpt lat="46.27922058" lon="8.67061234"><ele></ele><time>2014-6-4T22:17:27Z</time></trkpt>
<trkpt lat="46.27928162" lon="8.67062473"><ele></ele><time>2014-6-4T22:17:30Z</time></trkpt>
<trkpt lat="46.27935028" lon="8.67058754"><ele></ele><time>2014-6-4T22:17:33Z</time></trkpt>
<trkpt lat="46.27940369" lon="8.67054272"><ele></ele><time>2014-6-4T22:17:36Z</time></trkpt>
<trkpt lat="46.27941895" lon="8.67045116"><ele></ele><time>2014-6-4T22:17:39Z</time></trkpt>
<trkpt lat="46.27944183" lon="8.67035484"><ele></ele><time>2014-6-4T22:17:42Z</time></trkpt>
<trkpt lat="46.27940369" lon="8.67043781"><ele></ele><time>2014-6-4T22:17:45Z</time></trkpt>
<trkpt lat="46.27938843" lon="8.67050934"><ele></ele><time>2014-6-4T22:17:48Z</time></trkpt>
<trkpt lat="46.27928925" lon="8.67056847"><ele></ele><time>2014-6-4T22:17:51Z</time></trkpt>
<trkpt lat="46.27927780" lon="8.67057896"><ele></ele><time>2014-6-4T22:17:54Z</time></trkpt>
<trkpt lat="46.27923965" lon="8.67064571"><ele></ele><time>2014-6-4T22:17:57Z</time></trkpt>
<trkpt lat="46.27920532" lon="8.67077446"><ele></ele><time>2014-6-4T22:18:0Z</time></trkpt>
<trkpt lat="46.27917099" lon="8.67084694"><ele></ele><time>2014-6-4T22:18:3Z</time></trkpt>
<trkpt lat="46.27916718" lon="8.67085075"><ele></ele><time>2014-6-4T22:18:6Z</time></trkpt>
<trkpt lat="46.27912521" lon="8.67091465"><ele></ele><time>2014-6-4T22:18:9Z</time></trkpt>
<trkpt lat="46.27911758" lon="8.67100525"><ele></ele><time>2014-6-4T22:18:12Z</time></trkpt>
<trkpt lat="46.27911758" lon="8.67104435"><ele></ele><time>2014-6-4T22:18:15Z</time></trkpt>
<trkpt lat="46.27907944" lon="8.67119122"><ele></ele><time>2014-6-4T22:18:18Z</time></trkpt>
<trkpt lat="46.27904510" lon="8.67130184"><ele></ele><time>2014-6-4T22:18:21Z</time></trkpt>
<trkpt lat="46.27900314" lon="8.67135906"><ele></ele><time>2014-6-4T22:18:24Z</time></trkpt>
<trkpt lat="46.27894592" lon="8.67147732"><ele></ele><time>2014-6-4T22:18:27Z</time></trkpt>
<trkpt lat="46.27887726" lon="8.67156219"><ele></ele><time>2014-6-4T22:18:30Z</time></trkpt>
<trkpt lat="46.27882385" lon="8.67164993"><ele></ele><time>2014-6-4T22:18:33Z</time></trkpt>
<trkpt lat="46.27872086" lon="8.67171001"><ele></ele><time>2014-6-4T22:18:36Z</time></trkpt>
<trkpt lat="46.27863693" lon="8.67175865"><ele></ele><time>2014-6-4T22:18:39Z</time></trkpt>
<trkpt lat="46.27853012" lon="8.67180538"><ele></ele><time>2014-6-4T22:18:42Z</time></trkpt>
<trkpt lat="46.27847290" lon="8.67190170"><ele></ele><time>2014-6-4T22:18:45Z</time></trkpt>
<trkpt lat="46.27846909" lon="8.67191410"><ele></ele><time>2014-6-4T22:18:48Z</time></trkpt>
<trkpt lat="46.27846527" lon="8.67190933"><ele></ele><time>2014-6-4T22:18:51Z</time></trkpt>
<trkpt lat="46.27849197" lon="8.67184830"><ele></ele><time>2014-6-4T22:18:54Z</time></trkpt>
<trkpt lat="46.27856445" lon="8.67178917"><ele></ele><time>2014-6-4T22:18:57Z</time></trkpt>
<trkpt lat="46.27861786" lon="8.67183018"><ele></ele><time>2014-6-4T22:19:0Z</time></trkpt>
<trkpt lat="46.27869034" lon="8.67196655"><ele></ele><time>2014-6-4T22:19:3Z</time></trkpt>
<trkpt lat="46.27876282" lon="8.67191315"><ele></ele><time>2014-6-4T22:19:6Z</time></trkpt>
<trkpt lat="46.27880096" lon="8.67189026"><ele></ele><time>2014-6-4T22:19:9Z</time></trkpt>
<trkpt lat="46.27885056" lon="8.67188644"><ele></ele><time>2014-6-4T22:19:12Z</time></trkpt>
<trkpt lat="46.27886581" lon="8.67188263"><ele></ele><time>2014-6-4T22:19:15Z</time></trkpt>
<trkpt lat="46.27891159" lon="8.67185593"><ele></ele><time>2014-6-4T22:19:18Z</time></trkpt>
<trkpt lat="46.27896881" lon="8.67179775"><ele></ele><time>2014-6-4T22:19:21Z</time></trkpt>
<trkpt lat="46.27903366" lon="8.67175388"><ele></ele><time>2014-6-4T22:19:24Z</time></trkpt>
<trkpt lat="46.27906799" lon="8.67172623"><ele></ele><time>2014-6-4T22:19:27Z</time></trkpt>
<trkpt lat="46.27910233" lon="8.67169285"><ele></ele><time>2014-6-4T22:19:30Z</time></trkpt>
<trkpt lat="46.27913666" lon="8.67169952"><ele></ele><time>2014-6-4T22:19:33Z</time></trkpt>
<trkpt lat="46.27915955" lon="8.67180634"><ele></ele><time>2014-6-4T22:19:36Z</time></trkpt>
<trkpt lat="46.27919006" lon="8.67191029"><ele></ele><time>2014-6-4T22:19:39Z</time></trkpt>
<trkpt lat="46.27921295" lon="8.67198944"><ele></ele><time>2014-6-4T22:19:42Z</time></trkpt>
<trkpt lat="46.27922058" lon="8.67202377"><ele></ele><time>2014-6-4T22:19:45Z</time></trkpt>
<trkpt lat="46.27921677" lon="8.67202663"><ele></ele><time>2014-6-4T22:19:48Z</time></trkpt>
<trkpt lat="46.27921295" lon="8.67201519"><ele></ele><time>2014-6-4T22:19:51Z</time></trkpt>
<trkpt lat="46.27920532" lon="8.67188931"><ele></ele><time>2014-6-4T22:19:54Z</time></trkpt>
<trkpt lat="46.27921677" lon="8.67187309"><ele></ele><time>2014-6-4T22:19:57Z</time></trkpt>
<trkpt lat="46.27925491" lon="8.67186928"><ele></ele><time>2014-6-4T22:20:0Z</time></trkpt>
<trkpt lat="46.27930832" lon="8.67189407"><ele></ele><time>2014-6-4T22:20:3Z</time></trkpt>
<trkpt lat="46.27938461" lon="8.67191887"><ele></ele><time>2014-6-4T22:20:6Z</time></trkpt>
<trkpt lat="46.27942276" lon="8.67191410"><ele></ele><time>2014-6-4T22:20:9Z</time></trkpt>
<trkpt lat="46.27948761" lon="8.67183590"><ele></ele><time>2014-6-4T22:20:12Z</time></trkpt>
<trkpt lat="46.27953339" lon="8.67178535"><ele></ele><time>2014-6-4T22:20:15Z</time></trkpt>
<trkpt lat="46.27956772" lon="8.67167091"><ele></ele><time>2014-6-4T22:20:18Z</time></trkpt>
<trkpt lat="46.27956009" lon="8.67163944"><ele></ele><time>2014-6-4T22:20:21Z</time></trkpt>
<trkpt lat="46.27955246" lon="8.67159843"><ele></ele><time>2014-6-4T22:20:24Z</time></trkpt>
<trkpt lat="46.27953339" lon="8.67152596"><ele></ele><time>2014-6-4T22:20:27Z</time></trkpt>
<trkpt lat="46.27950287" lon="8.67144489"><ele></ele><time>2014-6-4T22:20:30Z</time></trkpt>
<trkpt lat="46.27948761" lon="8.67141247"><ele></ele><time>2014-6-4T22:20:33Z</time></trkpt>
<trkpt lat="46.27943420" lon="8.67135525"><ele></ele><time>2014-6-4T22:20:36Z</time></trkpt>
<trkpt lat="46.27939987" lon="8.67134380"><ele></ele><time>2014-6-4T22:20:39Z</time></trkpt>
<trkpt lat="46.27939224" lon="8.67132759"><ele></ele><time>2014-6-4T22:20:42Z</time></trkpt>
<trkpt lat="46.27936935" lon="8.67122364"><ele></ele><time>2014-6-4T22:20:45Z</time></trkpt>
<trkpt lat="46.27932358" lon="8.67114067"><ele></ele><time>2014-6-4T22:20:48Z</time></trkpt>
<trkpt lat="46.27927017" lon="8.67100430"><ele></ele><time>2014-6-4T22:20:51Z</time></trkpt>
<trkpt lat="46.27925873" lon="8.67097378"><ele></ele><time>2014-6-4T22:20:54Z</time></trkpt>
<trkpt lat="46.27925110" lon="8.67095757"><ele></ele><time>2014-6-4T22:20:57Z</time></trkpt>
<trkpt lat="46.27928162" lon="8.67086124"><ele></ele><time>2014-6-4T22:21:0Z</time></trkpt>
<trkpt lat="46.27929306" lon="8.67084694"><ele></ele><time>2014-6-4T22:21:3Z</time></trkpt>
<trkpt lat="46.27928543" lon="8.67081165"><ele></ele><time>2014-6-4T22:21:6Z</time></trkpt>
<trkpt lat="46.27921295" lon="8.67076111"><ele></ele><time>2014-6-4T22:21:9Z</time></trkpt>
<trkpt lat="46.27920151" lon="8.67068195"><ele></ele><time>2014-6-4T22:21:12Z</time></trkpt>
<trkpt lat="46.27920151" lon="8.67066956"><ele></ele><time>2014-6-4T22:21:15Z</time></trkpt>
<trkpt lat="46.27928925" lon="8.67061424"><ele></ele><time>2014-6-4T22:21:18Z</time></trkpt>
<trkpt lat="46.27937317" lon="8.67054558"><ele></ele><time>2014-6-4T22:21:21Z</time></trkpt>
<trkpt lat="46.27938080" lon="8.67053223"><ele></ele><time>2014-6-4T22:21:24Z</time></trkpt>
<trkpt lat="46.27944565" lon="8.67036724"><ele></ele><time>2014-6-4T22:21:27Z</time></trkpt>
<trkpt lat="46.27949524" lon="8.67025566"><ele></ele><time>2014-6-4T22:21:30Z</time></trkpt>
<trkpt lat="46.27951431" lon="8.67011261"><ele></ele><time>2014-6-4T22:21:33Z</time></trkpt>
<trkpt lat="46.27951813" lon="8.67008877"><ele></ele><time>2014-6-4T22:21:36Z</time></trkpt>
<trkpt lat="46.27954483" lon="8.67004490"><ele></ele><time>2014-6-4T22:21:39Z</time></trkpt>
<trkpt lat="46.27955246" lon="8.67003155"><ele></ele><time>2014-6-4T22:21:42Z</time></trkpt>
<trkpt lat="46.27958679" lon="8.66991901"><ele></ele><time>2014-6-4T22:21:45Z</time></trkpt>
<trkpt lat="46.27959824" lon="8.66982269"><ele></ele><time>2014-6-4T22:21:48Z</time></trkpt>
<trkpt lat="46.27959824" lon="8.66975689"><ele></ele><time>2014-6-4T22:21:51Z</time></trkpt>
<trkpt lat="46.27963638" lon="8.66962433"><ele></ele><time>2014-6-4T22:21:54Z</time></trkpt>
<trkpt lat="46.27964020" lon="8.66952133"><ele></ele><time>2014-6-4T22:21:57Z</time></trkpt>
<trkpt lat="46.27966309" lon="8.66940975"><ele></ele><time>2014-6-4T22:22:0Z</time></trkpt>
<trkpt lat="46.27978134" lon="8.66924763"><ele></ele><time>2014-6-4T22:22:3Z</time></trkpt>
<trkpt lat="46.27980423" lon="8.66922283"><ele></ele><time>2014-6-4T22:22:6Z</time></trkpt>
<trkpt lat="46.27996445" lon="8.66896725"><ele></ele><time>2014-6-4T22:22:9Z</time></trkpt>
<trkpt lat="46.28008270" lon="8.66872692"><ele></ele><time>2014-6-4T22:22:12Z</time></trkpt>
<trkpt lat="46.28013611" lon="8.66854477"><ele></ele><time>2014-6-4T22:22:15Z</time></trkpt>
<trkpt lat="46.28020859" lon="8.66839027"><ele></ele><time>2014-6-4T22:22:18Z</time></trkpt>
<trkpt lat="46.28030777" lon="8.66830826"><ele></ele><time>2014-6-4T22:22:21Z</time></trkpt>
<trkpt lat="46.28040695" lon="8.66819477"><ele></ele><time>2014-6-4T22:22:24Z</time></trkpt>
<trkpt lat="46.28056335" lon="8.66807270"><ele></ele><time>2014-6-4T22:22:27Z</time></trkpt>
<trkpt lat="46.28070068" lon="8.66802216"><ele></ele><time>2014-6-4T22:22:30Z</time></trkpt>
<trkpt lat="46.28082275" lon="8.66794109"><ele></ele><time>2014-6-4T22:22:33Z</time></trkpt>
<trkpt lat="46.28097153" lon="8.66778088"><ele></ele><time>2014-6-4T22:22:36Z</time></trkpt>
<trkpt lat="46.28105164" lon="8.66756725"><ele></ele><time>2014-6-4T22:22:39Z</time></trkpt>
<trkpt lat="46.28109741" lon="8.66737461"><ele></ele><time>2014-6-4T22:22:42Z</time></trkpt>
<trkpt lat="46.28116608" lon="8.66711998"><ele></ele><time>2014-6-4T22:22:45Z</time></trkpt>
<trkpt lat="46.28130341" lon="8.66689205"><ele></ele><time>2014-6-4T22:22:48Z</time></trkpt>
<trkpt lat="46.28144455" lon="8.66651440"><ele></ele><time>2014-6-4T22:22:51Z</time></trkpt>
<trkpt lat="46.28154373" lon="8.66637993"><ele></ele><time>2014-6-4T22:22:54Z</time></trkpt>
<trkpt lat="46.28172684" lon="8.66623211"><ele></ele><time>2014-6-4T22:22:57Z</time></trkpt>
<trkpt lat="46.28182220" lon="8.66606617"><ele></ele><time>2014-6-4T22:23:0Z</time></trkpt>
<trkpt lat="46.28183746" lon="8.66601181"><ele></ele><time>2014-6-4T22:23:3Z</time></trkpt>
<trkpt lat="46.28184891" lon="8.66575432"><ele></ele><time>2014-6-4T22:23:6Z</time></trkpt>
<trkpt lat="46.28183746" lon="8.66532421"><ele></ele><time>2014-6-4T22:23:9Z</time></trkpt>
<trkpt lat="46.28180695" lon="8.66499710"><ele></ele><time>2014-6-4T22:23:12Z</time></trkpt>
<trkpt lat="46.28189850" lon="8.66489315"><ele></ele><time>2014-6-4T22:23:15Z</time></trkpt>
<trkpt lat="46.28215027" lon="8.66477489"><ele></ele><time>2014-6-4T22:23:18Z</time></trkpt>
<trkpt lat="46.28224564" lon="8.66472816"><ele></ele><time>2014-6-4T22:23:21Z</time></trkpt>
<trkpt lat="46.28252029" lon="8.66452122"><ele></ele><time>2014-6-4T22:23:24Z</time></trkpt>
<trkpt lat="46.28277206" lon="8.66433430"><ele></ele><time>2014-6-4T22:23:27Z</time></trkpt>
<trkpt lat="46.28285599" lon="8.66427708"><ele></ele><time>2014-6-4T22:23:30Z</time></trkpt>
<trkpt lat="46.28304672" lon="8.66423607"><ele></ele><time>2014-6-4T22:23:33Z</time></trkpt>
<trkpt lat="46.28313828" lon="8.66421318"><ele></ele><time>2014-6-4T22:23:36Z</time></trkpt>
<trkpt lat="46.28331757" lon="8.66410542"><ele></ele><time>2014-6-4T22:23:39Z</time></trkpt>
<trkpt lat="46.28347778" lon="8.66396332"><ele></ele><time>2014-6-4T22:23:42Z</time></trkpt>
<trkpt lat="46.28362656" lon="8.66389942"><ele></ele><time>2014-6-4T22:23:45Z</time></trkpt>
<trkpt lat="46.28374100" lon="8.66370201"><ele></ele><time>2014-6-4T22:23:48Z</time></trkpt>
<trkpt lat="46.28373718" lon="8.66363239"><ele></ele><time>2014-6-4T22:23:51Z</time></trkpt>
<trkpt lat="46.28370285" lon="8.66321468"><ele></ele><time>2014-6-4T22:23:54Z</time></trkpt>
<trkpt lat="46.28375244" lon="8.66295338"><ele></ele><time>2014-6-4T22:23:57Z</time></trkpt>
<trkpt lat="46.28391647" lon="8.66266060"><ele></ele><time>2014-6-4T22:24:0Z</time></trkpt>
<trkpt lat="46.28393936" lon="8.66260529"><ele></ele><time>2014-6-4T22:24:3Z</time></trkpt>
<trkpt lat="46.28401947" lon="8.66243935"><ele></ele><time>2014-6-4T22:24:6Z</time></trkpt>
<trkpt lat="46.28417587" lon="8.66217518"><ele></ele><time>2014-6-4T22:24:9Z</time></trkpt>
<trkpt lat="46.28422546" lon="8.66204834"><ele></ele><time>2014-6-4T22:24:12Z</time></trkpt>
<trkpt lat="46.28432083" lon="8.66180038"><ele></ele><time>2014-6-4T22:24:15Z</time></trkpt>
<trkpt lat="46.28451538" lon="8.66156292"><ele></ele><time>2014-6-4T22:24:18Z</time></trkpt>
<trkpt lat="46.28466034" lon="8.66154003"><ele></ele><time>2014-6-4T22:24:21Z</time></trkpt>
<trkpt lat="46.28501129" lon="8.66156864"><ele></ele><time>2014-6-4T22:24:24Z</time></trkpt>
<trkpt lat="46.28516769" lon="8.66159821"><ele></ele><time>2014-6-4T22:24:27Z</time></trkpt>
<trkpt lat="46.28526306" lon="8.66160107"><ele></ele><time>2014-6-4T22:24:30Z</time></trkpt>
<trkpt lat="46.28546524" lon="8.66155148"><ele></ele><time>2014-6-4T22:24:33Z</time></trkpt>
<trkpt lat="46.28569794" lon="8.66141987"><ele></ele><time>2014-6-4T22:24:36Z</time></trkpt>
<trkpt lat="46.28589249" lon="8.66145897"><ele></ele><time>2014-6-4T22:24:39Z</time></trkpt>
<trkpt lat="46.28588867" lon="8.66162872"><ele></ele><time>2014-6-4T22:24:42Z</time></trkpt>
<trkpt lat="46.28581619" lon="8.66191483"><ele></ele><time>2014-6-4T22:24:45Z</time></trkpt>
<trkpt lat="46.28566360" lon="8.66245174"><ele></ele><time>2014-6-4T22:24:48Z</time></trkpt>
<trkpt lat="46.28552628" lon="8.66299629"><ele></ele><time>2014-6-4T22:24:51Z</time></trkpt>
<trkpt lat="46.28548813" lon="8.66316891"><ele></ele><time>2014-6-4T22:24:54Z</time></trkpt>
<trkpt lat="46.28541183" lon="8.66327953"><ele></ele><time>2014-6-4T22:24:57Z</time></trkpt>
<trkpt lat="46.28530884" lon="8.66319275"><ele></ele><time>2014-6-4T22:25:0Z</time></trkpt>
<trkpt lat="46.28528214" lon="8.66317558"><ele></ele><time>2014-6-4T22:25:3Z</time></trkpt>
<trkpt lat="46.28533173" lon="8.66303730"><ele></ele><time>2014-6-4T22:25:6Z</time></trkpt>
<trkpt lat="46.28535461" lon="8.66312122"><ele></ele><time>2014-6-4T22:25:9Z</time></trkpt>
<trkpt lat="46.28539276" lon="8.66327381"><ele></ele><time>2014-6-4T22:25:12Z</time></trkpt>
<trkpt lat="46.28542328" lon="8.66346169"><ele></ele><time>2014-6-4T22:25:15Z</time></trkpt>
<trkpt lat="46.28542328" lon="8.66401100"><ele></ele><time>2014-6-4T22:25:18Z</time></trkpt>
<trkpt lat="46.28540421" lon="8.66473961"><ele></ele><time>2014-6-4T22:25:21Z</time></trkpt>
<trkpt lat="46.28540039" lon="8.66483498"><ele></ele><time>2014-6-4T22:25:24Z</time></trkpt>
<trkpt lat="46.28530884" lon="8.66517639"><ele></ele><time>2014-6-4T22:25:27Z</time></trkpt>
<trkpt lat="46.28527069" lon="8.66524410"><ele></ele><time>2014-6-4T22:25:30Z</time></trkpt>
<trkpt lat="46.28519058" lon="8.66536808"><ele></ele><time>2014-6-4T22:25:33Z</time></trkpt>
<trkpt lat="46.28516769" lon="8.66555595"><ele></ele><time>2014-6-4T22:25:36Z</time></trkpt>
<trkpt lat="46.28519058" lon="8.66559792"><ele></ele><time>2014-6-4T22:25:39Z</time></trkpt>
<trkpt lat="46.28531265" lon="8.66564369"><ele></ele><time>2014-6-4T22:25:42Z</time></trkpt>
<trkpt lat="46.28544235" lon="8.66573524"><ele></ele><time>2014-6-4T22:25:45Z</time></trkpt>
<trkpt lat="46.28558350" lon="8.66592598"><ele></ele><time>2014-6-4T22:25:48Z</time></trkpt>
<trkpt lat="46.28562164" lon="8.66598988"><ele></ele><time>2014-6-4T22:25:51Z</time></trkpt>
<trkpt lat="46.28562546" lon="8.66598797"><ele></ele><time>2014-6-4T22:25:54Z</time></trkpt>
<trkpt lat="46.28551483" lon="8.66627884"><ele></ele><time>2014-6-4T22:25:57Z</time></trkpt>
<trkpt lat="46.28533554" lon="8.66668129"><ele></ele><time>2014-6-4T22:26:0Z</time></trkpt>
<trkpt lat="46.28505325" lon="8.66728210"><ele></ele><time>2014-6-4T22:26:3Z</time></trkpt>
<trkpt lat="46.28469467" lon="8.66792870"><ele></ele><time>2014-6-4T22:26:6Z</time></trkpt>
<trkpt lat="46.28433228" lon="8.66852665"><ele></ele><time>2014-6-4T22:26:9Z</time></trkpt>
<trkpt lat="46.28389359" lon="8.66916180"><ele></ele><time>2014-6-4T22:26:12Z</time></trkpt>
<trkpt lat="46.28344345" lon="8.66961956"><ele></ele><time>2014-6-4T22:26:15Z</time></trkpt>
<trkpt lat="46.28290176" lon="8.67005825"><ele></ele><time>2014-6-4T22:26:18Z</time></trkpt>
<trkpt lat="46.28227615" lon="8.67052174"><ele></ele><time>2014-6-4T22:26:21Z</time></trkpt>
<trkpt lat="46.28167343" lon="8.67088985"><ele></ele><time>2014-6-4T22:26:24Z</time></trkpt>
<trkpt lat="46.28113174" lon="8.67118740"><ele></ele><time>2014-6-4T22:26:27Z</time></trkpt>
<trkpt lat="46.28057861" lon="8.67151642"><ele></ele><time>2014-6-4T22:26:30Z</time></trkpt>
<trkpt lat="46.28029251" lon="8.67180634"><ele></ele><time>2014-6-4T22:26:33Z</time></trkpt>
<trkpt lat="46.28001022" lon="8.67226410"><ele></ele><time>2014-6-4T22:26:36Z</time></trkpt>
<trkpt lat="46.27954483" lon="8.67298126"><ele></ele><time>2014-6-4T22:26:39Z</time></trkpt>
<trkpt lat="46.27909851" lon="8.67341042"><ele></ele><time>2014-6-4T22:26:42Z</time></trkpt>
<trkpt lat="46.27860260" lon="8.67368412"><ele></ele><time>2014-6-4T22:26:45Z</time></trkpt>
<trkpt lat="46.27807617" lon="8.67381382"><ele></ele><time>2014-6-4T22:26:48Z</time></trkpt>
<trkpt lat="46.27756119" lon="8.67393398"><ele></ele><time>2014-6-4T22:26:51Z</time></trkpt>
<trkpt lat="46.27683258" lon="8.67417526"><ele></ele><time>2014-6-4T22:26:54Z</time></trkpt>
<trkpt lat="46.27632141" lon="8.67443180"><ele></ele><time>2014-6-4T22:26:57Z</time></trkpt>
<trkpt lat="46.27591324" lon="8.67480755"><ele></ele><time>2014-6-4T22:27:0Z</time></trkpt>
<trkpt lat="46.27556992" lon="8.67528820"><ele></ele><time>2014-6-4T22:27:3Z</time></trkpt>
<trkpt lat="46.27534866" lon="8.67576504"><ele></ele><time>2014-6-4T22:27:6Z</time></trkpt>
<trkpt lat="46.27508926" lon="8.67649746"><ele></ele><time>2014-6-4T22:27:9Z</time></trkpt>
<trkpt lat="46.27476883" lon="8.67732430"><ele></ele><time>2014-6-4T22:27:12Z</time></trkpt>
<trkpt lat="46.27439499" lon="8.67794228"><ele></ele><time>2014-6-4T22:27:15Z</time></trkpt>
<trkpt lat="46.27376938" lon="8.67885780"><ele></ele><time>2014-6-4T22:27:18Z</time></trkpt>
<trkpt lat="46.27325439" lon="8.67960453"><ele></ele><time>2014-6-4T22:27:21Z</time></trkpt>
<trkpt lat="46.27273178" lon="8.68030453"><ele></ele><time>2014-6-4T22:27:24Z</time></trkpt>
<trkpt lat="46.27231598" lon="8.68097782"><ele></ele><time>2014-6-4T22:27:27Z</time></trkpt>
<trkpt lat="46.27188873" lon="8.68161392"><ele></ele><time>2014-6-4T22:27:30Z</time></trkpt>
<trkpt lat="46.27148438" lon="8.68209553"><ele></ele><time>2014-6-4T22:27:33Z</time></trkpt>
<trkpt lat="46.27102280" lon="8.68242359"><ele></ele><time>2014-6-4T22:27:36Z</time></trkpt>
<trkpt lat="46.27059174" lon="8.68257904"><ele></ele><time>2014-6-4T22:27:39Z</time></trkpt>
<trkpt lat="46.27000809" lon="8.68271828"><ele></ele><time>2014-6-4T22:27:42Z</time></trkpt>
<trkpt lat="46.26927948" lon="8.68284893"><ele></ele><time>2014-6-4T22:27:45Z</time></trkpt>
<trkpt lat="46.26875305" lon="8.68301487"><ele></ele><time>2014-6-4T22:27:48Z</time></trkpt>
<trkpt lat="46.26836014" lon="8.68322468"><ele></ele><time>2014-6-4T22:27:51Z</time></trkpt>
<trkpt lat="46.26797867" lon="8.68356609"><ele></ele><time>2014-6-4T22:27:54Z</time></trkpt>
<trkpt lat="46.26763153" lon="8.68402958"><ele></ele><time>2014-6-4T22:27:57Z</time></trkpt>
<trkpt lat="46.26714325" lon="8.68470955"><ele></ele><time>2014-6-4T22:28:0Z</time></trkpt>
<trkpt lat="46.26660538" lon="8.68544483"><ele></ele><time>2014-6-4T22:28:3Z</time></trkpt>
<trkpt lat="46.26654816" lon="8.68553352"><ele></ele><time>2014-6-4T22:28:6Z</time></trkpt>
<trkpt lat="46.26608276" lon="8.68614292"><ele></ele><time>2014-6-4T22:28:9Z</time></trkpt>
<trkpt lat="46.26568604" lon="8.68659210"><ele></ele><time>2014-6-4T22:28:12Z</time></trkpt>
<trkpt lat="46.26529312" lon="8.68697071"><ele></ele><time>2014-6-4T22:28:15Z</time></trkpt>
<trkpt lat="46.26471710" lon="8.68751621"><ele></ele><time>2014-6-4T22:28:18Z</time></trkpt>
<trkpt lat="46.26420212" lon="8.68801212"><ele></ele><time>2014-6-4T22:28:21Z</time></trkpt>
<trkpt lat="46.26354599" lon="8.68863297"><ele></ele><time>2014-6-4T22:28:24Z</time></trkpt>
<trkpt lat="46.26329041" lon="8.68886375"><ele></ele><time>2014-6-4T22:28:27Z</time></trkpt>
<trkpt lat="46.26281357" lon="8.68910599"><ele></ele><time>2014-6-4T22:28:30Z</time></trkpt>
<trkpt lat="46.26267624" lon="8.68913841"><ele></ele><time>2014-6-4T22:28:33Z</time></trkpt>
<trkpt lat="46.26244354" lon="8.68927383"><ele></ele><time>2014-6-4T22:28:36Z</time></trkpt>
<trkpt lat="46.26209641" lon="8.68943310"><ele></ele><time>2014-6-4T22:28:39Z</time></trkpt>
<trkpt lat="46.26180649" lon="8.68965530"><ele></ele><time>2014-6-4T22:28:42Z</time></trkpt>
<trkpt lat="46.26144409" lon="8.68998814"><ele></ele><time>2014-6-4T22:28:45Z</time></trkpt>
<trkpt lat="46.26102829" lon="8.69037724"><ele></ele><time>2014-6-4T22:28:48Z</time></trkpt>
<trkpt lat="46.26051712" lon="8.69080830"><ele></ele><time>2014-6-4T22:28:51Z</time></trkpt>
<trkpt lat="46.26008224" lon="8.69110966"><ele></ele><time>2014-6-4T22:28:54Z</time></trkpt>
<trkpt lat="46.25958633" lon="8.69152069"><ele></ele><time>2014-6-4T22:28:57Z</time></trkpt>
<trkpt lat="46.25924683" lon="8.69181156"><ele></ele><time>2014-6-4T22:29:0Z</time></trkpt>
<trkpt lat="46.25923157" lon="8.69182205"><ele></ele><time>2014-6-4T22:29:3Z</time></trkpt>
<trkpt lat="46.25923920" lon="8.69181824"><ele></ele><time>2014-6-4T22:29:6Z</time></trkpt>
<trkpt lat="46.25917053" lon="8.69186878"><ele></ele><time>2014-6-4T22:29:9Z</time></trkpt>
<trkpt lat="46.25904846" lon="8.69197559"><ele></ele><time>2014-6-4T22:29:12Z</time></trkpt>
<trkpt lat="46.25875473" lon="8.69219208"><ele></ele><time>2014-6-4T22:29:15Z</time></trkpt>
<trkpt lat="46.25834656" lon="8.69241524"><ele></ele><time>2014-6-4T22:29:18Z</time></trkpt>
<trkpt lat="46.25789642" lon="8.69267082"><ele></ele><time>2014-6-4T22:29:21Z</time></trkpt>
<trkpt lat="46.25750351" lon="8.69303131"><ele></ele><time>2014-6-4T22:29:24Z</time></trkpt>
<trkpt lat="46.25691986" lon="8.69366455"><ele></ele><time>2014-6-4T22:29:27Z</time></trkpt>
<trkpt lat="46.25633621" lon="8.69429588"><ele></ele><time>2014-6-4T22:29:30Z</time></trkpt>
<trkpt lat="46.25580215" lon="8.69484997"><ele></ele><time>2014-6-4T22:29:33Z</time></trkpt>
<trkpt lat="46.25522232" lon="8.69544411"><ele></ele><time>2014-6-4T22:29:36Z</time></trkpt>
<trkpt lat="46.25486755" lon="8.69589424"><ele></ele><time>2014-6-4T22:29:39Z</time></trkpt>
<trkpt lat="46.25438690" lon="8.69660568"><ele></ele><time>2014-6-4T22:29:42Z</time></trkpt>
<trkpt lat="46.25388336" lon="8.69736862"><ele></ele><time>2014-6-4T22:29:45Z</time></trkpt>
<trkpt lat="46.25351715" lon="8.69792080"><ele></ele><time>2014-6-4T22:29:48Z</time></trkpt>
<trkpt lat="46.25319290" lon="8.69847965"><ele></ele><time>2014-6-4T22:29:51Z</time></trkpt>
<trkpt lat="46.25294113" lon="8.69888496"><ele></ele><time>2014-6-4T22:29:54Z</time></trkpt>
<trkpt lat="46.25287628" lon="8.69903183"><ele></ele><time>2014-6-4T22:29:57Z</time></trkpt>
<trkpt lat="46.25271225" lon="8.69925404"><ele></ele><time>2014-6-4T22:30:0Z</time></trkpt>
<trkpt lat="46.25247192" lon="8.69931889"><ele></ele><time>2014-6-4T22:30:3Z</time></trkpt>
<trkpt lat="46.25209427" lon="8.69952965"><ele></ele><time>2014-6-4T22:30:6Z</time></trkpt>
<trkpt lat="46.25179291" lon="8.69970226"><ele></ele><time>2014-6-4T22:30:9Z</time></trkpt>
<trkpt lat="46.25149536" lon="8.69988918"><ele></ele><time>2014-6-4T22:30:12Z</time></trkpt>
<trkpt lat="46.25130081" lon="8.69999981"><ele></ele><time>2014-6-4T22:30:15Z</time></trkpt>
<trkpt lat="46.25099945" lon="8.70018864"><ele></ele><time>2014-6-4T22:30:18Z</time></trkpt>
<trkpt lat="46.25072479" lon="8.70036125"><ele></ele><time>2014-6-4T22:30:21Z</time></trkpt>
<trkpt lat="46.25062561" lon="8.70044231"><ele></ele><time>2014-6-4T22:30:24Z</time></trkpt>
<trkpt lat="46.25053024" lon="8.70050907"><ele></ele><time>2014-6-4T22:30:27Z</time></trkpt>
<trkpt lat="46.25050354" lon="8.70057392"><ele></ele><time>2014-6-4T22:30:30Z</time></trkpt>
<trkpt lat="46.25038528" lon="8.70059681"><ele></ele><time>2014-6-4T22:30:33Z</time></trkpt>
<trkpt lat="46.25015259" lon="8.70073223"><ele></ele><time>2014-6-4T22:30:36Z</time></trkpt>
<trkpt lat="46.24980927" lon="8.70093632"><ele></ele><time>2014-6-4T22:30:39Z</time></trkpt>
<trkpt lat="46.24953079" lon="8.70111179"><ele></ele><time>2014-6-4T22:30:42Z</time></trkpt>
<trkpt lat="46.24917984" lon="8.70132637"><ele></ele><time>2014-6-4T22:30:45Z</time></trkpt>
<trkpt lat="46.24884033" lon="8.70153332"><ele></ele><time>2014-6-4T22:30:48Z</time></trkpt>
<trkpt lat="46.24854279" lon="8.70171356"><ele></ele><time>2014-6-4T22:30:51Z</time></trkpt>
<trkpt lat="46.24837112" lon="8.70181847"><ele></ele><time>2014-6-4T22:30:54Z</time></trkpt>
<trkpt lat="46.24801254" lon="8.70205593"><ele></ele><time>2014-6-4T22:30:57Z</time></trkpt>
<trkpt lat="46.24782562" lon="8.70224190"><ele></ele><time>2014-6-4T22:31:0Z</time></trkpt>
<trkpt lat="46.24765778" lon="8.70264435"><ele></ele><time>2014-6-4T22:31:3Z</time></trkpt>
<trkpt lat="46.24768066" lon="8.70288372"><ele></ele><time>2014-6-4T22:31:6Z</time></trkpt>
<trkpt lat="46.24780273" lon="8.70306873"><ele></ele><time>2014-6-4T22:31:9Z</time></trkpt>
<trkpt lat="46.24788666" lon="8.70313644"><ele></ele><time>2014-6-4T22:31:12Z</time></trkpt>
<trkpt lat="46.24818039" lon="8.70348167"><ele></ele><time>2014-6-4T22:31:15Z</time></trkpt>
<trkpt lat="46.24818802" lon="8.70372677"><ele></ele><time>2014-6-4T22:31:18Z</time></trkpt>
<trkpt lat="46.24810028" lon="8.70394325"><ele></ele><time>2014-6-4T22:31:21Z</time></trkpt>
<trkpt lat="46.24782562" lon="8.70451641"><ele></ele><time>2014-6-4T22:31:24Z</time></trkpt>
<trkpt lat="46.24764252" lon="8.70494270"><ele></ele><time>2014-6-4T22:31:27Z</time></trkpt>
<trkpt lat="46.24763489" lon="8.70495987"><ele></ele><time>2014-6-4T22:31:30Z</time></trkpt>
<trkpt lat="46.24757767" lon="8.70504761"><ele></ele><time>2014-6-4T22:31:33Z</time></trkpt>
<trkpt lat="46.24744415" lon="8.70508385"><ele></ele><time>2014-6-4T22:31:36Z</time></trkpt>
<trkpt lat="46.24713898" lon="8.70522594"><ele></ele><time>2014-6-4T22:31:39Z</time></trkpt>
<trkpt lat="46.24709320" lon="8.70526123"><ele></ele><time>2014-6-4T22:31:42Z</time></trkpt>
<trkpt lat="46.24668121" lon="8.70572281"><ele></ele><time>2014-6-4T22:31:45Z</time></trkpt>
<trkpt lat="46.24619675" lon="8.70628643"><ele></ele><time>2014-6-4T22:31:48Z</time></trkpt>
<trkpt lat="46.24572372" lon="8.70682526"><ele></ele><time>2014-6-4T22:31:51Z</time></trkpt>
<trkpt lat="46.24562836" lon="8.70714283"><ele></ele><time>2014-6-4T22:31:54Z</time></trkpt>
<trkpt lat="46.24566269" lon="8.70775127"><ele></ele><time>2014-6-4T22:31:57Z</time></trkpt>
<trkpt lat="46.24567032" lon="8.70792484"><ele></ele><time>2014-6-4T22:32:0Z</time></trkpt>
<trkpt lat="46.24570847" lon="8.70814610"><ele></ele><time>2014-6-4T22:32:3Z</time></trkpt>
<trkpt lat="46.24575424" lon="8.70844173"><ele></ele><time>2014-6-4T22:32:6Z</time></trkpt>
<trkpt lat="46.24586105" lon="8.70885086"><ele></ele><time>2014-6-4T22:32:9Z</time></trkpt>
<trkpt lat="46.24583054" lon="8.70943737"><ele></ele><time>2014-6-4T22:32:12Z</time></trkpt>
<trkpt lat="46.24572754" lon="8.71012306"><ele></ele><time>2014-6-4T22:32:15Z</time></trkpt>
<trkpt lat="46.24565125" lon="8.71048164"><ele></ele><time>2014-6-4T22:32:18Z</time></trkpt>
<trkpt lat="46.24564362" lon="8.71051502"><ele></ele><time>2014-6-4T22:32:21Z</time></trkpt>
<trkpt lat="46.24568176" lon="8.71053219"><ele></ele><time>2014-6-4T22:32:24Z</time></trkpt>
<trkpt lat="46.24571228" lon="8.71056843"><ele></ele><time>2014-6-4T22:32:27Z</time></trkpt>
</trkseg></trk></gpx>